UA4393 / N653CA 7700 Squawk Report (25th of October, 2020)

Aircraft CRJ7 Reg No. N653CA Age N/A
Model Regional-Jet Jet engines 2 First flight 01-04
Registered 31-01-20 Rollout 12-03 Delivered 16-01-04
Construction No. 10129 Line No. N/A Series 700
ADSHEX A89812 Airline name Delta Connection Owner SkyWest Airlines
Airfield based Salt Lake City Int'l~UT~N First tracked N/A

Flight history for N653CA

Route Flight No Date Playback
Chicago Ohare Intl (ORD) - Lambert St Louis Intl (STL) UA4480 2020-11-10 01:24:00
Detroit Metro Wayne Co (DTW) - Chicago Ohare Intl (ORD) N/A 2020-11-09 22:25:00
Chicago Ohare Intl (ORD) - Detroit Metro Wayne Co (DTW) UA4475 2020-11-09 18:33:00
Harrisburg Intl (MDT) - Chicago Ohare Intl (ORD) UA4394 2020-11-09 17:37:00
Chicago Ohare Intl (ORD) - Harrisburg Intl (MDT) UA4411 2020-11-09 02:47:00
Greater Rochester Intl (ROC) - Chicago Ohare Intl (ORD) UA4425 2020-11-09 00:22:00
Chicago Ohare Intl (ORD) - Greater Rochester Intl (ROC) UA4482 2020-11-08 22:25:00
Dane Co Rgnl Truax Fld (MSN) - Chicago Ohare Intl (ORD) UA4502 2020-11-08 18:51:00
Chicago Ohare Intl (ORD) - Dane Co Rgnl Truax Fld (MSN) UA4395 2020-11-08 18:05:00
John Wayne Arpt Orange Co (SNA) - Opa Locka (OPF) N/A 2020-11-08 15:34:00
Piedmont Triad (GSO) - Chicago Ohare Intl (ORD) UA4381 2020-11-08 15:14:00
Chicago Ohare Intl (ORD) - Piedmont Triad (GSO) UA4539 2020-11-07 21:26:00
Port Columbus (CMH) - Chicago Ohare Intl (ORD) UA4391 2020-11-07 19:59:00
Chicago Ohare Intl (ORD) - Port Columbus (CMH) UA4392 2020-11-07 15:56:00
Cincinnati Northern Kentucky Intl (CVG) - Chicago Ohare Intl (ORD) UA4402 2020-11-07 00:19:00
Chicago Ohare Intl (ORD) - Cincinnati Northern Kentucky Intl (CVG) UA4521 2020-11-06 21:41:00
Cleveland Hopkins Intl (CLE) - Chicago Ohare Intl (ORD) UA4389 2020-11-06 18:13:00
Chicago Ohare Intl (ORD) - Cleveland Hopkins Intl (CLE) UA4388 2020-11-06 17:11:00
Chicago Ohare Intl (ORD) - Will Rogers World (OKC) UA4697 2020-11-06 14:58:00
Piedmont Triad (GSO) - Chicago Ohare Intl (ORD) UA4381 2020-11-06 14:55:00
Time Lat Lon Altitude Heading Speed Vertical Rate
2020-10-25 18:01:10 GMT 41.973625 -87.907150 0 75 6 0
2020-10-25 18:01:02 GMT 41.973557 -87.907356 0 42 4 0
2020-10-25 18:00:45 GMT 41.973221 -87.907707 0 39 13 0
2020-10-25 18:00:41 GMT 41.973106 -87.907822 0 30 12 0
2020-10-25 18:00:13 GMT 41.972206 -87.908539 0 135 13 0
2020-10-25 18:00:08 GMT 41.972385 -87.908806 0 135 16 0
2020-10-25 17:59:55 GMT 41.972870 -87.909851 0 81 17 0
2020-10-25 17:59:40 GMT 41.972008 -87.910255 0 323 19 0
2020-10-25 17:57:42 GMT 41.965752 -87.911369 0 89 34 -192
2020-10-25 17:57:39 GMT 41.965740 -87.911987 0 89 40 -192
2020-10-25 17:57:36 GMT 41.965752 -87.912697 0 90 42 -192
2020-10-25 17:57:33 GMT 41.965740 -87.913483 0 88 44 -192
2020-10-25 17:57:30 GMT 41.965740 -87.914268 0 89 44 -192
2020-10-25 17:57:27 GMT 41.965752 -87.915092 0 90 45 -192
2020-10-25 17:57:24 GMT 41.965729 -87.916779 0 90 43 -192
2020-10-25 17:57:21 GMT 41.965729 -87.916779 0 90 44 -192
2020-10-25 17:57:18 GMT 41.965752 -87.917664 0 87 47 -192
2020-10-25 17:57:15 GMT 41.965721 -87.918640 0 90 57 -192
2020-10-25 17:57:12 GMT 41.965721 -87.919647 0 90 69 -192
2020-10-25 17:57:09 GMT 41.965721 -87.920952 425 90 82 -192
2020-10-25 17:57:06 GMT 41.965752 -87.924408 450 90 108 0
2020-10-25 17:57:03 GMT 41.965721 -87.926483 450 88 115 0
2020-10-25 17:57:00 GMT 41.965721 -87.926483 450 89 117 -352
2020-10-25 17:56:57 GMT 41.965729 -87.928642 450 90 116 -480
2020-10-25 17:56:54 GMT 41.965672 -87.930817 525 90 121 -480
2020-10-25 17:56:51 GMT 41.965672 -87.933022 525 88 120 -480
2020-10-25 17:56:48 GMT 41.965710 -87.937347 600 90 118 -480
2020-10-25 17:56:45 GMT 41.965710 -87.937347 600 89 117 -480
2020-10-25 17:56:42 GMT 41.965710 -87.939537 625 90 120 -480
2020-10-25 17:56:39 GMT 41.965752 -87.941704 675 89 121 -480
2020-10-25 17:56:36 GMT 41.965698 -87.943939 700 89 123 -480
2020-10-25 17:56:33 GMT 41.965672 -87.946167 725 89 115 -480
2020-10-25 17:56:30 GMT 41.965691 -87.950531 800 89 121 -480
2020-10-25 17:56:27 GMT 41.965691 -87.950531 900 90 125 -480
2020-10-25 17:56:24 GMT 41.965679 -87.952812 900 89 122 -480
2020-10-25 17:56:21 GMT 41.965672 -87.955063 900 90 115 -480
2020-10-25 17:56:18 GMT 41.965660 -87.957191 900 89 122 -480
2020-10-25 17:56:15 GMT 41.965660 -87.959450 900 88 119 -480
2020-10-25 17:56:12 GMT 41.965618 -87.961647 1,000 88 120 -480
2020-10-25 17:56:09 GMT 41.965611 -87.963898 1,200 89 117 -640
2020-10-25 17:56:06 GMT 41.965630 -87.966019 1,050 90 119 -480
2020-10-25 17:56:03 GMT 41.965660 -87.968292 1,050 90 120 -480
2020-10-25 17:56:00 GMT 41.965618 -87.970459 1,100 90 113 -480
2020-10-25 17:55:57 GMT 41.965672 -87.972542 1,150 89 119 -256
2020-10-25 17:55:54 GMT 41.965660 -87.974739 1,150 89 119 -256
2020-10-25 17:55:51 GMT 41.965530 -87.977051 1,200 93 118 -256
2020-10-25 17:55:48 GMT 41.965649 -87.979179 1,200 85 118 -256
2020-10-25 17:55:45 GMT 41.965530 -87.981377 1,300 90 116 -256
2020-10-25 17:55:42 GMT 41.965569 -87.983559 1,300 90 118 -256
2020-10-25 17:55:39 GMT 41.965561 -87.985741 1,300 89 121 -256
2020-10-25 17:55:36 GMT 41.965519 -87.987999 1,325 91 118 -256
2020-10-25 17:55:33 GMT 41.965542 -87.990242 1,400 90 119 -256
2020-10-25 17:55:30 GMT 41.965530 -87.992416 1,400 90 119 -256
2020-10-25 17:55:27 GMT 41.965530 -87.994637 1,500 89 119 -256
2020-10-25 17:55:24 GMT 41.965530 -87.996880 1,600 89 119 -256
2020-10-25 17:55:21 GMT 41.965519 -87.999069 1,600 90 121 -256
2020-10-25 17:55:18 GMT 41.965530 -88.001358 1,600 90 118 -256
2020-10-25 17:55:15 GMT 41.965530 -88.005760 1,600 89 121 -256
2020-10-25 17:55:12 GMT 41.965530 -88.005760 1,600 89 120 -256
2020-10-25 17:55:09 GMT 41.965500 -88.007973 1,700 89 121 -1280
2020-10-25 17:55:06 GMT 41.965511 -88.010239 1,700 89 122 -1280
2020-10-25 17:55:03 GMT 41.965488 -88.012550 1,700 89 124 -1280
2020-10-25 17:55:00 GMT 41.965439 -88.014801 1,800 90 120 -1280
2020-10-25 17:54:57 GMT 41.965439 -88.017097 1,800 90 121 -544
2020-10-25 17:54:54 GMT 41.965450 -88.021698 1,900 89 134 -544
2020-10-25 17:54:51 GMT 41.965450 -88.021698 1,900 90 137 -544
2020-10-25 17:54:48 GMT 41.965450 -88.024193 1,900 89 139 -544
2020-10-25 17:54:45 GMT 41.965431 -88.026787 2,000 90 143 -544
2020-10-25 17:54:42 GMT 41.965431 -88.029457 2,000 90 154 -544
2020-10-25 17:54:39 GMT 41.965450 -88.032288 2,000 90 159 -544
2020-10-25 17:54:36 GMT 41.965431 -88.038132 2,100 89 161 -544
2020-10-25 17:54:33 GMT 41.965431 -88.038132 2,200 90 163 -544
2020-10-25 17:54:30 GMT 41.965439 -88.041130 2,200 90 163 -544
2020-10-25 17:54:27 GMT 41.965439 -88.044167 2,200 90 163 -544
2020-10-25 17:54:24 GMT 41.965439 -88.047188 2,300 90 161 -544
2020-10-25 17:54:21 GMT 41.965439 -88.050148 2,300 90 161 -544
2020-10-25 17:54:18 GMT 41.965462 -88.053139 2,300 89 160 -544
2020-10-25 17:54:15 GMT 41.965401 -88.056084 2,400 89 170 -544
2020-10-25 17:54:06 GMT 41.965351 -88.065834 2,525 89 163 -896
2020-10-25 17:54:03 GMT 41.965347 -88.068718 2,575 89 162 -768
2020-10-25 17:53:58 GMT 41.965347 -88.073769 2,650 90 160 -704
2020-10-25 17:53:55 GMT 41.965305 -88.075668 2,675 90 160 -704
2020-10-25 17:53:51 GMT 41.965305 -88.079819 2,725 90 159 -576
2020-10-25 17:53:48 GMT 41.965302 -88.083076 2,775 90 160 -64
2020-10-25 17:53:45 GMT 41.965305 -88.085892 2,750 89 158 -128
2020-10-25 17:53:42 GMT 41.965256 -88.088943 2,775 89 159 -64
2020-10-25 17:53:37 GMT 41.965214 -88.094765 2,775 90 160 -64
2020-10-25 17:53:34 GMT 41.965214 -88.097771 2,775 89 161 -64
2020-10-25 17:53:30 GMT 41.965214 -88.100388 2,775 89 160 -64
2020-10-25 17:53:27 GMT 41.965214 -88.103966 2,775 90 158 0
2020-10-25 17:53:23 GMT 41.965210 -88.107727 2,775 89 157 192
2020-10-25 17:53:20 GMT 41.965168 -88.110413 2,750 89 159 -128
2020-10-25 17:53:14 GMT 41.965168 -88.116356 2,825 90 162 -576
2020-10-25 17:53:10 GMT 41.965168 -88.120186 2,825 90 163 -704
2020-10-25 17:53:06 GMT 41.965168 -88.125046 2,900 89 163 -1024
2020-10-25 17:53:03 GMT 41.965118 -88.128578 2,975 89 162 -832
2020-10-25 17:52:59 GMT 41.965118 -88.131493 3,000 89 162 -832
2020-10-25 17:52:56 GMT 41.965073 -88.135010 3,075 89 160 -896
2020-10-25 17:52:52 GMT 41.965073 -88.138756 3,100 89 160 -896
2020-10-25 17:52:49 GMT 41.965073 -88.140938 3,175 89 160 -960
2020-10-25 17:52:46 GMT 41.965027 -88.145607 3,250 89 160 -960
2020-10-25 17:52:43 GMT 41.965027 -88.147400 3,275 89 160 -960
2020-10-25 17:52:40 GMT 41.965027 -88.151054 3,325 89 160 -960
2020-10-25 17:52:36 GMT 41.964981 -88.155235 3,400 89 160 -960
2020-10-25 17:52:33 GMT 41.964935 -88.157745 3,475 89 161 -1024
2020-10-25 17:52:30 GMT 41.964935 -88.161133 3,550 89 161 -960
2020-10-25 17:52:27 GMT 41.964935 -88.162788 3,525 89 161 -960
2020-10-25 17:52:24 GMT 41.964935 -88.166306 3,575 89 161 -896
2020-10-25 17:52:21 GMT 41.964890 -88.169403 3,650 89 162 -1024
2020-10-25 17:52:18 GMT 41.964886 -88.171928 3,675 89 162 -896
2020-10-25 17:52:15 GMT 41.964890 -88.176643 3,750 90 163 -896
2020-10-25 17:52:12 GMT 41.964886 -88.178375 3,775 90 163 -896
2020-10-25 17:52:09 GMT 41.964840 -88.186295 3,875 90 164 -896
2020-10-25 17:52:05 GMT 41.964840 -88.186295 3,925 90 165 -960
2020-10-25 17:52:02 GMT 41.964840 -88.190002 3,975 90 165 -960
2020-10-25 17:51:59 GMT 41.964844 -88.192558 4,025 90 166 -1024
2020-10-25 17:51:56 GMT 41.964840 -88.194283 4,050 90 166 -1024
2020-10-25 17:51:53 GMT 41.964844 -88.197304 4,100 90 167 -1024
2020-10-25 17:51:50 GMT 41.964844 -88.200989 4,150 90 167 -1088
2020-10-25 17:51:47 GMT 41.964890 -88.204735 4,725 89 167 -896
2020-10-25 17:51:44 GMT 41.964886 -88.208015 4,300 90 169 -1152
2020-10-25 17:51:40 GMT 41.964890 -88.211914 4,350 90 169 -1024
2020-10-25 17:51:37 GMT 41.964890 -88.214600 4,400 89 169 -1024
2020-10-25 17:51:31 GMT 41.964840 -88.220978 4,550 89 168 -1024
2020-10-25 17:51:28 GMT 41.964840 -88.224747 4,550 89 168 -1024
2020-10-25 17:51:25 GMT 41.964794 -88.226860 4,600 89 167 -896
2020-10-25 17:51:22 GMT 41.964748 -88.229927 4,650 89 167 -896
2020-10-25 17:51:19 GMT 41.964748 -88.233437 4,700 89 165 -640
2020-10-25 17:51:16 GMT 41.964706 -88.236443 4,725 89 165 -576
2020-10-25 17:51:13 GMT 41.964653 -88.242638 4,750 88 164 0
2020-10-25 17:51:10 GMT 41.964607 -88.247360 4,750 89 164 0
2020-10-25 17:51:06 GMT 41.964607 -88.247360 4,750 89 164 0
2020-10-25 17:51:02 GMT 41.964561 -88.251190 4,750 88 164 0
2020-10-25 17:50:59 GMT 41.964523 -88.254799 4,750 88 163 0
2020-10-25 17:50:56 GMT 41.964466 -88.257324 4,750 88 163 0
2020-10-25 17:50:52 GMT 41.964375 -88.261734 4,750 88 162 0
2020-10-25 17:50:48 GMT 41.964340 -88.265099 4,750 89 163 0
2020-10-25 17:50:44 GMT 41.964329 -88.268822 4,750 88 163 0
2020-10-25 17:50:40 GMT 41.964233 -88.273674 4,750 88 163 0
2020-10-25 17:50:35 GMT 41.964188 -88.278084 4,750 89 163 -64
2020-10-25 17:50:29 GMT 41.964157 -88.284882 4,750 90 163 0
2020-10-25 17:50:26 GMT 41.964188 -88.287796 4,750 90 164 -64
2020-10-25 17:50:20 GMT 41.964233 -88.294312 4,750 90 163 64
2020-10-25 17:50:17 GMT 41.964233 -88.296738 4,750 90 163 0
2020-10-25 17:50:14 GMT 41.964294 -88.300240 4,750 91 163 64
2020-10-25 17:50:09 GMT 41.964478 -88.309105 4,750 92 162 -64
2020-10-25 17:50:05 GMT 41.964478 -88.309105 4,750 91 162 0
2020-10-25 17:49:57 GMT 41.964615 -88.317345 4,750 91 162 0
2020-10-25 17:49:53 GMT 41.964706 -88.321777 4,750 91 161 -64
2020-10-25 17:49:49 GMT 41.964748 -88.324646 4,750 90 161 0
2020-10-25 17:49:46 GMT 41.964794 -88.327652 4,750 90 161 0
2020-10-25 17:49:41 GMT 41.964706 -88.332138 4,750 87 160 0
2020-10-25 17:49:37 GMT 41.964233 -88.339790 4,750 82 159 0
2020-10-25 17:49:33 GMT 41.964233 -88.339790 4,750 70 161 -64
2020-10-25 17:49:29 GMT 41.963074 -88.344452 4,750 62 162 64
2020-10-25 17:49:26 GMT 41.961731 -88.347992 4,750 61 162 0
2020-10-25 17:49:22 GMT 41.960724 -88.350487 4,750 61 162 0
2020-10-25 17:49:19 GMT 41.959488 -88.353485 4,750 61 163 64
2020-10-25 17:49:16 GMT 41.958511 -88.355881 4,750 61 163 0
2020-10-25 17:49:13 GMT 41.957291 -88.358978 4,750 61 163 0
2020-10-25 17:49:10 GMT 41.956696 -88.360413 4,750 61 163 0
2020-10-25 17:49:07 GMT 41.955643 -88.363098 4,750 63 168 320
2020-10-25 17:49:04 GMT 41.954273 -88.366615 4,750 62 162 0
2020-10-25 17:49:01 GMT 41.953033 -88.369713 4,750 62 163 64
2020-10-25 17:48:58 GMT 41.951805 -88.372871 4,750 62 164 0
2020-10-25 17:48:54 GMT 41.949646 -88.378395 4,750 62 164 -64
2020-10-25 17:48:50 GMT 41.949646 -88.378395 4,750 62 165 -128
2020-10-25 17:48:47 GMT 41.948318 -88.381889 4,775 62 166 -128
2020-10-25 17:48:44 GMT 41.947357 -88.384445 4,775 63 165 -64
2020-10-25 17:48:40 GMT 41.945755 -88.388695 4,775 62 167 -128
2020-10-25 17:48:35 GMT 41.944016 -88.393311 4,775 62 167 128
2020-10-25 17:48:32 GMT 41.942963 -88.396057 4,750 62 169 128
2020-10-25 17:48:29 GMT 41.942322 -88.397743 4,750 63 177 64
2020-10-25 17:48:26 GMT 41.941006 -88.401237 4,750 63 171 0
2020-10-25 17:48:23 GMT 41.940033 -88.403732 4,750 63 171 -64
2020-10-25 17:48:19 GMT 41.938110 -88.408981 4,750 63 174 64
2020-10-25 17:48:15 GMT 41.935371 -88.416245 4,750 63 175 64
2020-10-25 17:48:11 GMT 41.935371 -88.416245 4,750 63 176 0
2020-10-25 17:48:08 GMT 41.934441 -88.418800 4,750 63 177 64
2020-10-25 17:48:04 GMT 41.932983 -88.422585 4,750 63 180 -64
2020-10-25 17:47:58 GMT 41.930649 -88.428833 4,750 63 183 -128
2020-10-25 17:47:55 GMT 41.929741 -88.431190 4,750 62 185 -64
2020-10-25 17:47:52 GMT 41.928295 -88.434898 4,750 62 188 -64
2020-10-25 17:47:49 GMT 41.926758 -88.438751 4,750 60 194 64
2020-10-25 17:47:45 GMT 41.925156 -88.442566 4,750 58 197 0
2020-10-25 17:47:42 GMT 41.923920 -88.445244 4,750 53 200 -64
2020-10-25 17:47:38 GMT 41.921638 -88.449074 4,750 41 206 -64
2020-10-25 17:47:35 GMT 41.919453 -88.451820 4,750 33 210 -64
2020-10-25 17:47:31 GMT 41.916195 -88.454758 4,750 25 214 0
2020-10-25 17:47:28 GMT 41.913025 -88.456673 4,750 18 219 64
2020-10-25 17:47:25 GMT 41.910793 -88.457573 4,750 11 222 0
2020-10-25 17:47:21 GMT 41.907116 -88.458466 4,750 1 224 0
2020-10-25 17:47:16 GMT 41.902134 -88.458466 4,750 358 225 0
2020-10-25 17:47:13 GMT 41.897572 -88.457695 4,750 351 225 -64
2020-10-25 17:47:09 GMT 41.893059 -88.456612 4,750 349 225 0
2020-10-25 17:47:06 GMT 41.890686 -88.455986 4,750 346 226 64
2020-10-25 17:47:03 GMT 41.888260 -88.455109 4,750 343 226 64
2020-10-25 17:47:00 GMT 41.885376 -88.453674 4,750 336 229 0
2020-10-25 17:46:57 GMT 41.881466 -88.450867 4,750 324 231 0
2020-10-25 17:46:53 GMT 41.878067 -88.447289 4,750 317 233 0
2020-10-25 17:46:50 GMT 41.876671 -88.445496 4,750 310 235 0
2020-10-25 17:46:46 GMT 41.874203 -88.441414 4,750 306 236 0
2020-10-25 17:46:43 GMT 41.872295 -88.437065 4,750 289 238 64
2020-10-25 17:46:40 GMT 41.870804 -88.432465 4,750 287 238 0
2020-10-25 17:46:37 GMT 41.869812 -88.427208 4,750 278 240 0
2020-10-25 17:46:33 GMT 41.869354 -88.422775 4,750 274 239 0
2020-10-25 17:46:30 GMT 41.869270 -88.417267 4,750 268 240 0
2020-10-25 17:46:26 GMT 41.869453 -88.411324 4,750 267 240 0
2020-10-25 17:46:22 GMT 41.869736 -88.404488 4,750 268 240 -64
2020-10-25 17:46:19 GMT 41.869781 -88.402130 4,750 268 240 0
2020-10-25 17:46:16 GMT 41.870014 -88.396767 4,750 267 240 0
2020-10-25 17:46:12 GMT 41.870224 -88.391563 4,750 268 240 64
2020-10-25 17:46:09 GMT 41.870407 -88.386505 4,750 267 240 0
2020-10-25 17:46:05 GMT 41.870682 -88.379951 4,750 268 240 0
2020-10-25 17:45:59 GMT 41.871002 -88.370468 4,750 268 240 64
2020-10-25 17:45:55 GMT 41.871178 -88.366165 4,750 268 240 0
2020-10-25 17:45:52 GMT 41.871368 -88.360664 4,750 268 240 0
2020-10-25 17:45:48 GMT 41.871552 -88.355858 4,750 268 240 -64
2020-10-25 17:45:45 GMT 41.871784 -88.350075 4,750 267 240 0
2020-10-25 17:45:42 GMT 41.872101 -88.342499 4,750 268 240 0
2020-10-25 17:45:39 GMT 41.872101 -88.342499 4,750 267 240 0
2020-10-25 17:45:35 GMT 41.872295 -88.336403 4,750 267 240 0
2020-10-25 17:45:32 GMT 41.872528 -88.330399 4,750 268 240 0
2020-10-25 17:45:28 GMT 41.872742 -88.324898 4,750 267 240 64
2020-10-25 17:45:23 GMT 41.873062 -88.317467 4,750 267 240 64
2020-10-25 17:45:20 GMT 41.873226 -88.312836 4,750 267 240 0
2020-10-25 17:45:17 GMT 41.873363 -88.309891 4,750 268 240 0
2020-10-25 17:45:14 GMT 41.873566 -88.304359 4,750 268 240 64
2020-10-25 17:45:10 GMT 41.873749 -88.298988 4,750 268 241 64
2020-10-25 17:45:07 GMT 41.873932 -88.294250 4,750 268 241 0
2020-10-25 17:45:03 GMT 41.874115 -88.289757 4,750 268 241 -64
2020-10-25 17:45:00 GMT 41.874298 -88.283958 4,750 268 241 0
2020-10-25 17:44:57 GMT 41.874435 -88.279175 4,750 268 241 64
2020-10-25 17:44:53 GMT 41.874622 -88.274384 4,750 268 241 64
2020-10-25 17:44:50 GMT 41.874847 -88.267967 4,750 268 241 -64
2020-10-25 17:44:46 GMT 41.874996 -88.263649 4,750 268 241 -64
2020-10-25 17:44:43 GMT 41.875168 -88.257545 4,750 268 240 0
2020-10-25 17:44:40 GMT 41.875259 -88.255486 4,750 268 240 0
2020-10-25 17:44:37 GMT 41.875443 -88.249489 4,750 268 243 0
2020-10-25 17:44:34 GMT 41.875599 -88.245445 4,750 268 245 0
2020-10-25 17:44:31 GMT 41.875786 -88.240013 4,750 268 246 0
2020-10-25 17:44:26 GMT 41.876019 -88.232033 4,750 268 251 64
2020-10-25 17:44:23 GMT 41.876205 -88.227692 4,750 268 254 64
2020-10-25 17:44:20 GMT 41.876347 -88.223602 4,750 268 256 64
2020-10-25 17:44:17 GMT 41.876530 -88.217850 4,750 268 263 -64
2020-10-25 17:44:13 GMT 41.876717 -88.212296 4,750 268 265 -64
2020-10-25 17:44:10 GMT 41.876907 -88.207230 4,750 268 269 -64
2020-10-25 17:44:07 GMT 41.877045 -88.203735 4,750 268 272 0
2020-10-25 17:44:04 GMT 41.877228 -88.198555 4,750 268 273 -64
2020-10-25 17:44:01 GMT 41.877460 -88.191216 4,750 268 275 0
2020-10-25 17:43:58 GMT 41.877594 -88.186256 4,750 268 275 64
2020-10-25 17:43:55 GMT 41.877777 -88.180824 4,750 268 275 0
2020-10-25 17:43:52 GMT 41.877930 -88.175888 4,750 268 275 64
2020-10-25 17:43:49 GMT 41.878006 -88.172958 4,750 268 275 64
2020-10-25 17:43:46 GMT 41.878300 -88.164963 4,750 268 276 -192
2020-10-25 17:43:39 GMT 41.878674 -88.153656 4,775 268 276 -128
2020-10-25 17:43:35 GMT 41.878860 -88.148232 4,775 268 277 -192
2020-10-25 17:43:29 GMT 41.879185 -88.138969 4,800 268 277 -320
2020-10-25 17:43:26 GMT 41.879417 -88.132774 4,825 268 277 -640
2020-10-25 17:43:23 GMT 41.879559 -88.129005 4,850 268 277 -1024
2020-10-25 17:43:20 GMT 41.879837 -88.121468 4,950 267 276 -1216
2020-10-25 17:43:16 GMT 41.880070 -88.115463 5,075 268 275 -1216
2020-10-25 17:43:13 GMT 41.880302 -88.110161 5,075 268 275 -1216
2020-10-25 17:43:09 GMT 41.880489 -88.103386 5,175 268 273 -1152
2020-10-25 17:43:06 GMT 41.880753 -88.096809 5,250 268 273 -1280
2020-10-25 17:43:03 GMT 41.880844 -88.094063 5,400 268 272 -1344
2020-10-25 17:42:59 GMT 41.881092 -88.086143 5,400 268 272 -1344
2020-10-25 17:42:56 GMT 41.881256 -88.080261 5,500 268 272 -1344
2020-10-25 17:42:53 GMT 41.881420 -88.075668 5,550 268 271 -1344
2020-10-25 17:42:50 GMT 41.881577 -88.071465 5,600 268 271 -1344
2020-10-25 17:42:47 GMT 41.881805 -88.065468 5,650 268 271 -1280
2020-10-25 17:42:43 GMT 41.882023 -88.059570 5,800 268 271 -1280
2020-10-25 17:42:39 GMT 41.882263 -88.052048 5,875 268 271 -1280
2020-10-25 17:42:34 GMT 41.882584 -88.043159 5,975 268 271 -1344
2020-10-25 17:42:30 GMT 41.882812 -88.036942 6,050 268 271 -1344
2020-10-25 17:42:26 GMT 41.882996 -88.031883 6,125 268 271 -1344
2020-10-25 17:42:23 GMT 41.883224 -88.025146 6,225 268 272 -1344
2020-10-25 17:42:20 GMT 41.883373 -88.019905 6,300 268 272 -1280
2020-10-25 17:42:17 GMT 41.883591 -88.012352 6,375 268 273 -1344
2020-10-25 17:42:11 GMT 41.883820 -88.005920 6,475 268 273 -1280
2020-10-25 17:42:08 GMT 41.884003 -87.998802 6,500 269 274 -1280
2020-10-25 17:42:05 GMT 41.884071 -87.995255 6,600 270 275 -1088
2020-10-25 17:42:01 GMT 41.884048 -87.982445 6,675 271 275 -960
2020-10-25 17:41:58 GMT 41.884048 -87.982445 6,750 271 276 -704
2020-10-25 17:41:54 GMT 41.884750 -87.976540 7,400 270 277 -2240
2020-10-25 17:41:51 GMT 41.884731 -87.971397 7,400 270 277 -2240
2020-10-25 17:41:48 GMT 41.884720 -87.966248 7,400 270 277 -2240
2020-10-25 17:41:45 GMT 41.884708 -87.961113 7,400 270 277 -2240
2020-10-25 17:41:42 GMT 41.884689 -87.955971 7,400 270 277 -2240
2020-10-25 17:41:39 GMT 41.884682 -87.950829 7,400 270 277 -2240
2020-10-25 17:41:36 GMT 41.884670 -87.945679 7,400 270 277 -2240
2020-10-25 17:41:33 GMT 41.884651 -87.940536 7,400 270 277 -2240
2020-10-25 17:41:30 GMT 41.884640 -87.935402 7,400 270 277 -2240
2020-10-25 17:41:27 GMT 41.884628 -87.930260 7,400 270 277 -2240
2020-10-25 17:41:24 GMT 41.884510 -87.925262 7,400 270 277 -2240
2020-10-25 17:41:21 GMT 41.884510 -87.920097 7,400 270 277 -2240
2020-10-25 17:41:18 GMT 41.884529 -87.914909 7,600 269 277 -2240
2020-10-25 17:41:15 GMT 41.884449 -87.909439 7,600 269 274 -2240
2020-10-25 17:41:12 GMT 41.884480 -87.904343 7,600 269 274 -2240
2020-10-25 17:41:09 GMT 41.884590 -87.898972 7,625 270 274 -1600
2020-10-25 17:41:06 GMT 41.884609 -87.893898 7,800 269 273 -1056
2020-10-25 17:41:03 GMT 41.884701 -87.883049 8,100 269 270 -1056
2020-10-25 17:41:00 GMT 41.884701 -87.883049 7,950 270 276 -2240
2020-10-25 17:40:57 GMT 41.884731 -87.878098 8,300 270 263 -1056
2020-10-25 17:40:54 GMT 41.884918 -87.872650 8,300 270 263 -1056
2020-10-25 17:40:51 GMT 41.885208 -87.867340 8,300 270 263 -1056
2020-10-25 17:40:48 GMT 41.885132 -87.862488 8,500 270 261 -1056
2020-10-25 17:40:45 GMT 41.884220 -87.853470 8,700 269 270 -1056
2020-10-25 17:40:42 GMT 41.884220 -87.853470 9,000 268 266 -1056
2020-10-25 17:40:39 GMT 41.884350 -87.848518 9,000 270 272 -1056
2020-10-25 17:40:36 GMT 41.884418 -87.843971 9,000 270 272 -1056
2020-10-25 17:40:33 GMT 41.884418 -87.839104 9,000 270 272 -1056
2020-10-25 17:40:30 GMT 41.884579 -87.829048 9,300 278 277 -1056
2020-10-25 17:40:27 GMT 41.884579 -87.829048 9,250 278 273 -1600
2020-10-25 17:40:24 GMT 41.884560 -87.823357 9,400 283 272 -1056
2020-10-25 17:40:21 GMT 41.883801 -87.818413 9,400 283 272 -1056
2020-10-25 17:40:18 GMT 41.882401 -87.813408 9,400 283 272 -1056
2020-10-25 17:40:15 GMT 41.882462 -87.808128 9,700 291 272 -1056
2020-10-25 17:40:12 GMT 41.881222 -87.803337 9,700 291 272 -1056
2020-10-25 17:40:09 GMT 41.880428 -87.798073 9,750 291 276 -832
2020-10-25 17:40:06 GMT 41.879490 -87.793571 9,800 300 290 352
2020-10-25 17:40:03 GMT 41.877522 -87.788857 9,800 300 290 352
2020-10-25 17:40:00 GMT 41.876202 -87.784439 9,800 303 308 352
2020-10-25 17:39:57 GMT 41.873871 -87.779648 9,800 303 308 352
2020-10-25 17:39:54 GMT 41.869541 -87.769913 9,700 305 308 -64
2020-10-25 17:39:51 GMT 41.869541 -87.769913 9,700 305 308 -64
2020-10-25 17:39:48 GMT 41.867069 -87.765251 9,700 305 308 -64
2020-10-25 17:39:45 GMT 41.864449 -87.760048 9,800 304 300 -64
2020-10-25 17:39:42 GMT 41.862068 -87.755363 9,800 304 303 -64
2020-10-25 17:39:39 GMT 41.859650 -87.750763 9,800 304 303 -64
2020-10-25 17:39:36 GMT 41.857151 -87.746773 9,800 303 315 736
2020-10-25 17:39:33 GMT 41.854771 -87.742432 9,800 303 315 736
2020-10-25 17:39:30 GMT 41.852310 -87.737297 9,800 302 328 736
2020-10-25 17:39:27 GMT 41.849869 -87.732391 9,750 305 335 0
2020-10-25 17:39:24 GMT 41.846786 -87.726265 9,750 305 336 64
2020-10-25 17:39:21 GMT 41.844761 -87.721947 9,750 304 340 -64
2020-10-25 17:39:18 GMT 41.842049 -87.716812 9,750 305 343 -64
2020-10-25 17:39:15 GMT 41.839642 -87.711433 9,750 307 341 256
2020-10-25 17:39:12 GMT 41.836552 -87.706390 9,800 307 333 256
2020-10-25 17:39:09 GMT 41.833920 -87.701439 9,800 309 339 0
2020-10-25 17:39:06 GMT 41.831219 -87.696091 9,750 313 340 -96
2020-10-25 17:39:03 GMT 41.827721 -87.691551 9,800 312 339 -96
2020-10-25 17:39:00 GMT 41.824940 -87.686310 9,750 318 338 64
2020-10-25 17:38:57 GMT 41.821720 -87.681602 9,750 317 344 64
2020-10-25 17:38:54 GMT 41.817902 -87.677948 9,750 320 352 64
2020-10-25 17:38:51 GMT 41.813034 -87.672882 9,750 319 377 -160
2020-10-25 17:38:48 GMT 41.809914 -87.669174 9,750 320 345 0
2020-10-25 17:38:45 GMT 41.806286 -87.665024 9,750 321 346 64
2020-10-25 17:38:42 GMT 41.803207 -87.661598 9,750 321 346 0
2020-10-25 17:38:39 GMT 41.799858 -87.657928 9,750 321 346 0
2020-10-25 17:38:36 GMT 41.796696 -87.654358 9,750 321 346 -64
2020-10-25 17:38:33 GMT 41.792358 -87.649490 9,750 321 347 0
2020-10-25 17:38:30 GMT 41.787571 -87.644135 9,750 321 347 64
2020-10-25 17:38:26 GMT 41.783333 -87.639473 9,750 321 347 64
2020-10-25 17:38:22 GMT 41.777756 -87.633255 9,750 321 348 64
2020-10-25 17:38:14 GMT 41.769104 -87.623581 9,750 321 348 -64
2020-10-25 17:38:11 GMT 41.765270 -87.619354 9,750 321 349 0
2020-10-25 17:38:04 GMT 41.755692 -87.608665 9,750 321 350 0
2020-10-25 17:38:01 GMT 41.752563 -87.605232 9,750 321 350 0
2020-10-25 17:37:58 GMT 41.748459 -87.600670 9,750 321 350 0
2020-10-25 17:37:54 GMT 41.742737 -87.594246 9,750 321 350 64
2020-10-25 17:37:51 GMT 41.736362 -87.587158 9,750 320 351 0
2020-10-25 17:37:48 GMT 41.736362 -87.587158 9,750 320 351 0
2020-10-25 17:37:42 GMT 41.727264 -87.576889 9,750 320 352 -64
2020-10-25 17:37:38 GMT 41.724678 -87.573936 9,750 320 352 -64
2020-10-25 17:37:35 GMT 41.719574 -87.568153 9,750 320 353 -128
2020-10-25 17:37:30 GMT 41.712570 -87.560226 9,775 320 353 64
2020-10-25 17:37:25 GMT 41.706989 -87.553818 9,750 320 353 64
2020-10-25 17:37:22 GMT 41.703140 -87.549423 9,750 320 352 64
2020-10-25 17:37:19 GMT 41.700165 -87.546051 9,750 320 352 0
2020-10-25 17:37:16 GMT 41.697071 -87.542511 9,750 320 352 0
2020-10-25 17:37:11 GMT 41.689499 -87.533882 9,750 320 351 -64
2020-10-25 17:37:07 GMT 41.684555 -87.528198 9,750 320 351 -64
2020-10-25 17:37:04 GMT 41.680965 -87.524117 9,750 320 351 0
2020-10-25 17:36:59 GMT 41.675125 -87.517586 9,750 320 350 0
2020-10-25 17:36:56 GMT 41.671795 -87.513771 9,750 320 350 0
2020-10-25 17:36:51 GMT 41.664505 -87.505478 9,750 320 349 64
2020-10-25 17:36:48 GMT 41.662033 -87.502731 9,750 320 349 64
2020-10-25 17:36:43 GMT 41.654297 -87.494179 9,750 323 349 0
2020-10-25 17:36:39 GMT 41.649261 -87.489174 9,750 325 350 0
2020-10-25 17:36:36 GMT 41.645771 -87.485985 9,750 326 349 64
2020-10-25 17:36:31 GMT 41.640244 -87.481010 9,750 327 349 0
2020-10-25 17:36:28 GMT 41.635162 -87.476456 9,750 327 350 0
2020-10-25 17:36:23 GMT 41.629105 -87.471039 9,750 326 351 0
2020-10-25 17:36:20 GMT 41.623856 -87.466278 9,750 326 351 0
2020-10-25 17:36:17 GMT 41.620213 -87.462990 9,750 326 351 0
2020-10-25 17:36:12 GMT 41.613327 -87.456856 9,750 326 352 0
2020-10-25 17:36:07 GMT 41.605865 -87.450172 9,750 327 353 0
2020-10-25 17:36:01 GMT 41.599079 -87.444084 9,750 327 353 -64
2020-10-25 17:35:56 GMT 41.592133 -87.437874 9,750 327 354 -64
2020-10-25 17:35:52 GMT 41.582336 -87.429077 9,750 326 355 -64
2020-10-25 17:35:49 GMT 41.581669 -87.428436 9,750 326 355 0
2020-10-25 17:35:46 GMT 41.577850 -87.424988 9,750 326 356 0
2020-10-25 17:35:43 GMT 41.574188 -87.421646 9,750 326 356 -64
2020-10-25 17:35:40 GMT 41.570892 -87.418709 9,775 326 351 64
2020-10-25 17:35:37 GMT 41.567192 -87.415405 9,775 326 351 64
2020-10-25 17:35:34 GMT 41.561699 -87.410484 9,750 326 355 64
2020-10-25 17:35:29 GMT 41.556107 -87.405479 9,750 326 355 0
2020-10-25 17:35:26 GMT 41.550659 -87.400543 9,750 326 355 0
2020-10-25 17:35:23 GMT 41.546036 -87.396362 9,750 326 354 0
2020-10-25 17:35:20 GMT 41.542511 -87.393181 9,775 326 353 -64
2020-10-25 17:35:16 GMT 41.536701 -87.387939 9,775 326 353 0
2020-10-25 17:35:12 GMT 41.528042 -87.380081 9,750 326 352 64
2020-10-25 17:35:08 GMT 41.528042 -87.380081 9,750 326 351 0
2020-10-25 17:35:05 GMT 41.521729 -87.374390 9,750 326 351 64
2020-10-25 17:34:59 GMT 41.513947 -87.367279 9,750 326 349 0
2020-10-25 17:34:56 GMT 41.510010 -87.363594 9,750 324 348 -64
2020-10-25 17:34:53 GMT 41.507904 -87.361595 9,750 324 348 -64
2020-10-25 17:34:48 GMT 41.500946 -87.354607 9,750 321 347 0
2020-10-25 17:34:44 GMT 41.494492 -87.347488 9,750 320 346 0
2020-10-25 17:34:37 GMT 41.487446 -87.339134 9,750 319 347 -64
2020-10-25 17:34:34 GMT 41.482655 -87.333389 9,775 319 349 -192
2020-10-25 17:34:31 GMT 41.480347 -87.330696 9,775 319 350 -256
2020-10-25 17:34:28 GMT 41.475769 -87.325203 9,800 319 351 -640
2020-10-25 17:34:22 GMT 41.469570 -87.317863 9,875 318 352 -1024
2020-10-25 17:34:17 GMT 41.463287 -87.310265 9,975 318 353 -1088
2020-10-25 17:34:12 GMT 41.457001 -87.302666 10,050 318 353 -1088
2020-10-25 17:34:07 GMT 41.450439 -87.294678 10,150 318 354 -1088
2020-10-25 17:34:02 GMT 41.443726 -87.286629 10,250 319 356 -1088
2020-10-25 17:33:59 GMT 41.442032 -87.284569 10,275 319 356 -1088
2020-10-25 17:33:56 GMT 41.437866 -87.279572 10,450 319 356 -1088
2020-10-25 17:33:52 GMT 41.432419 -87.273140 10,475 319 356 -1088
2020-10-25 17:33:49 GMT 41.427395 -87.267151 10,625 318 356 -1088
2020-10-25 17:33:45 GMT 41.424694 -87.263893 10,525 318 356 -1088
2020-10-25 17:33:42 GMT 41.418915 -87.257034 10,625 318 356 -1024
2020-10-25 17:33:39 GMT 41.416550 -87.254250 10,625 319 357 -832
2020-10-25 17:33:33 GMT 41.409302 -87.245552 10,725 318 356 128
2020-10-25 17:33:29 GMT 41.403049 -87.238022 10,750 319 357 -64
2020-10-25 17:33:25 GMT 41.399460 -87.233818 10,750 318 357 0
2020-10-25 17:33:20 GMT 41.392246 -87.225121 10,750 318 357 -64
2020-10-25 17:33:14 GMT 41.386734 -87.218460 10,750 319 370 64
2020-10-25 17:33:11 GMT 41.381168 -87.211723 10,750 319 370 64
2020-10-25 17:33:08 GMT 41.377304 -87.207092 10,750 319 370 64
2020-10-25 17:33:03 GMT 41.372498 -87.201355 10,750 319 369 64
2020-10-25 17:32:59 GMT 41.361832 -87.188171 10,750 317 376 128
2020-10-25 17:32:48 GMT 41.353317 -87.175964 10,750 312 376 -64
2020-10-25 17:32:43 GMT 41.346771 -87.166321 10,775 313 377 -256
2020-10-25 17:32:40 GMT 41.343246 -87.161194 10,775 313 378 -192
2020-10-25 17:32:37 GMT 41.340759 -87.157539 10,800 313 378 -192
2020-10-25 17:32:28 GMT 41.329029 -87.140312 10,800 312 380 -384
2020-10-25 17:32:20 GMT 41.321720 -87.129448 10,900 312 381 -1344
2020-10-25 17:32:17 GMT 41.317299 -87.122833 11,000 312 378 -1536
2020-10-25 17:32:12 GMT 41.311295 -87.113716 11,125 312 377 -1536
2020-10-25 17:32:06 GMT 41.304173 -87.102921 11,275 312 376 -1536
2020-10-25 17:31:57 GMT 41.294254 -87.088127 11,475 312 368 -1536
2020-10-25 17:31:52 GMT 41.287598 -87.078201 11,625 312 370 -1600
2020-10-25 17:31:46 GMT 41.281357 -87.068848 11,775 312 369 -1600
2020-10-25 17:31:39 GMT 41.274193 -87.058159 11,925 312 369 -1536
2020-10-25 17:31:36 GMT 41.270794 -87.053108 12,075 312 367 -1536
2020-10-25 17:31:31 GMT 41.264694 -87.043991 12,150 312 367 -1536
2020-10-25 17:31:25 GMT 41.258366 -87.034569 12,275 313 367 -1536
2020-10-25 17:31:21 GMT 41.253021 -87.026733 12,400 313 366 -1600
2020-10-25 17:31:16 GMT 41.246384 -87.017029 12,550 313 367 -1600
2020-10-25 17:31:13 GMT 41.244598 -87.014343 12,600 313 367 -1600
2020-10-25 17:31:09 GMT 41.240707 -87.008667 12,675 313 367 -1600
2020-10-25 17:31:05 GMT 41.235367 -87.000793 12,875 313 368 -1472
2020-10-25 17:30:59 GMT 41.229309 -86.991882 12,925 313 369 -1472
2020-10-25 17:30:53 GMT 41.221710 -86.980835 13,075 313 370 -1472
2020-10-25 17:30:49 GMT 41.216858 -86.973755 13,175 313 371 -1600
2020-10-25 17:30:45 GMT 41.212234 -86.967041 13,275 313 372 -1600
2020-10-25 17:30:42 GMT 41.208755 -86.961975 13,400 313 374 -1600
2020-10-25 17:30:38 GMT 41.204643 -86.956039 13,450 313 374 -1600
2020-10-25 17:30:33 GMT 41.197659 -86.945862 13,600 313 375 -1600
2020-10-25 17:30:28 GMT 41.191795 -86.937309 13,725 313 378 -1600
2020-10-25 17:30:24 GMT 41.187557 -86.931129 13,825 313 378 -1600
2020-10-25 17:30:18 GMT 41.180714 -86.921143 13,975 313 380 -1536
2020-10-25 17:30:13 GMT 41.175266 -86.913155 14,075 313 387 0
2020-10-25 17:30:10 GMT 41.171730 -86.907913 14,150 313 383 -1472
2020-10-25 17:30:07 GMT 41.168144 -86.902664 14,250 313 384 -1536
2020-10-25 17:30:02 GMT 41.162567 -86.894470 14,350 313 384 -1600
2020-10-25 17:29:57 GMT 41.154648 -86.882996 14,525 313 385 -1536
2020-10-25 17:29:53 GMT 41.150803 -86.877441 14,675 313 385 -1600
2020-10-25 17:29:50 GMT 41.146591 -86.871269 14,700 313 386 -1536
2020-10-25 17:29:47 GMT 41.143753 -86.867088 14,750 313 386 -1600
2020-10-25 17:29:40 GMT 41.135139 -86.854477 14,875 313 386 -1536
2020-10-25 17:29:37 GMT 41.130661 -86.847961 15,025 313 387 -1536
2020-10-25 17:29:30 GMT 41.122849 -86.836563 15,250 313 387 -1536
2020-10-25 17:29:26 GMT 41.118622 -86.830383 15,275 313 387 -1536
2020-10-25 17:29:23 GMT 41.114426 -86.824265 15,375 313 387 -1536
2020-10-25 17:29:19 GMT 41.110886 -86.819153 15,500 313 388 -1536
2020-10-25 17:29:15 GMT 41.105438 -86.811218 15,525 313 388 -1536
2020-10-25 17:29:09 GMT 41.097610 -86.799744 15,750 313 390 -1536
2020-10-25 17:29:06 GMT 41.093216 -86.793396 15,775 313 390 -1536
2020-10-25 17:29:02 GMT 41.088867 -86.787048 15,875 313 390 -1536
2020-10-25 17:28:59 GMT 41.084583 -86.780823 15,975 313 390 -1536
2020-10-25 17:28:55 GMT 41.081085 -86.775696 16,025 313 391 -1536
2020-10-25 17:28:50 GMT 41.071335 -86.761536 16,300 313 394 -1600
2020-10-25 17:28:47 GMT 41.071335 -86.761536 16,300 313 392 -1536
2020-10-25 17:28:43 GMT 41.066475 -86.754417 16,350 313 391 -1536
2020-10-25 17:28:39 GMT 41.060749 -86.746048 16,525 312 393 -1600
2020-10-25 17:28:35 GMT 41.055908 -86.738930 16,550 313 392 -1536
2020-10-25 17:28:31 GMT 41.050041 -86.730377 16,700 312 393 -1536
2020-10-25 17:28:27 GMT 41.047028 -86.725891 16,750 313 396 -1536
2020-10-25 17:28:24 GMT 41.043137 -86.720154 16,825 312 393 -1536
2020-10-25 17:28:21 GMT 41.038872 -86.713905 16,925 313 394 -1600
2020-10-25 17:28:18 GMT 41.036545 -86.710510 16,950 313 395 -1600
2020-10-25 17:28:14 GMT 41.030182 -86.701172 17,100 313 394 -1600
2020-10-25 17:28:10 GMT 41.021412 -86.688499 17,350 313 396 -1472
2020-10-25 17:28:07 GMT 41.021412 -86.688499 17,300 313 396 -1472
2020-10-25 17:28:03 GMT 41.017319 -86.682617 17,350 313 396 -1472
2020-10-25 17:28:00 GMT 41.012753 -86.675949 17,425 313 397 -1472
2020-10-25 17:27:57 GMT 41.008987 -86.670349 17,500 312 397 -1536
2020-10-25 17:27:53 GMT 41.004932 -86.664398 17,600 312 397 -1536
2020-10-25 17:27:48 GMT 40.999603 -86.656616 17,700 313 398 -1536
2020-10-25 17:27:45 GMT 40.996040 -86.651421 17,875 313 399 -1536
2020-10-25 17:27:41 GMT 40.989716 -86.642151 17,850 313 399 -1536
2020-10-25 17:27:36 GMT 40.980679 -86.628944 18,075 313 400 -1536
2020-10-25 17:27:29 GMT 40.974442 -86.619896 18,225 313 400 -1600
2020-10-25 17:27:25 GMT 40.969116 -86.612122 18,325 313 401 -1600
2020-10-25 17:27:21 GMT 40.964355 -86.605225 18,425 313 402 -1600
2020-10-25 17:27:15 GMT 40.957172 -86.594925 18,575 313 402 -1600
2020-10-25 17:27:12 GMT 40.953400 -86.589493 18,675 313 404 -1600
2020-10-25 17:27:08 GMT 40.948837 -86.582939 18,725 313 404 -1600
2020-10-25 17:27:04 GMT 40.939945 -86.570267 18,950 313 404 -1600
2020-10-25 17:27:01 GMT 40.939945 -86.570267 18,900 313 404 -1600
2020-10-25 17:26:58 GMT 40.935944 -86.564400 19,000 313 405 -1600
2020-10-25 17:26:53 GMT 40.930122 -86.555969 19,125 313 406 -1536
2020-10-25 17:26:50 GMT 40.925171 -86.548828 19,200 313 406 -1536
2020-10-25 17:26:47 GMT 40.922489 -86.544991 19,250 313 407 -1536
2020-10-25 17:26:42 GMT 40.916519 -86.536377 19,375 313 407 -1536
2020-10-25 17:26:39 GMT 40.912720 -86.530823 19,450 313 408 -1536
2020-10-25 17:26:34 GMT 40.905121 -86.519775 19,600 312 407 -1472
2020-10-25 17:26:30 GMT 40.900936 -86.513710 19,725 312 407 -1472
2020-10-25 17:26:27 GMT 40.896515 -86.507202 19,750 312 407 -1472
2020-10-25 17:26:22 GMT 40.889626 -86.497047 19,900 312 407 -1472
2020-10-25 17:26:16 GMT 40.883194 -86.487671 20,025 313 406 -1600
2020-10-25 17:26:12 GMT 40.874588 -86.475220 20,150 313 406 -1536
2020-10-25 17:26:09 GMT 40.874588 -86.475220 20,225 313 406 -1600
2020-10-25 17:26:06 GMT 40.870350 -86.469147 20,275 313 406 -1600
2020-10-25 17:26:02 GMT 40.865276 -86.461906 20,425 313 406 -1664
2020-10-25 17:25:59 GMT 40.861588 -86.456604 20,750 313 406 -1664
2020-10-25 17:25:56 GMT 40.856964 -86.450012 20,550 313 407 -1664
2020-10-25 17:25:52 GMT 40.852242 -86.443237 20,650 313 408 -1664
2020-10-25 17:25:48 GMT 40.848145 -86.437431 20,750 313 410 -1600
2020-10-25 17:25:45 GMT 40.843643 -86.430969 20,825 313 411 -1600
2020-10-25 17:25:41 GMT 40.838837 -86.424133 20,925 313 413 -1664
2020-10-25 17:25:38 GMT 40.834972 -86.418579 21,125 313 415 -1600
2020-10-25 17:25:34 GMT 40.830139 -86.411743 21,100 313 415 -1600
2020-10-25 17:25:31 GMT 40.826523 -86.406494 21,175 313 416 -1536
2020-10-25 17:25:28 GMT 40.822495 -86.400726 21,225 313 416 -1600
2020-10-25 17:25:25 GMT 40.817047 -86.392860 21,400 313 416 -1600
2020-10-25 17:25:21 GMT 40.811604 -86.385002 21,450 313 416 -1664
2020-10-25 17:25:18 GMT 40.808205 -86.380127 21,525 313 416 -1664
2020-10-25 17:25:12 GMT 40.801346 -86.370178 21,800 313 415 -1664
2020-10-25 17:25:09 GMT 40.796055 -86.362526 21,775 313 414 -1408
2020-10-25 17:25:04 GMT 40.784416 -86.345734 21,900 313 414 -1344
2020-10-25 17:25:00 GMT 40.784416 -86.345734 21,950 313 412 -1152
2020-10-25 17:24:56 GMT 40.780701 -86.340332 21,975 313 412 -704
2020-10-25 17:24:53 GMT 40.775299 -86.332581 22,000 313 411 -64
2020-10-25 17:24:48 GMT 40.769009 -86.323509 22,000 313 411 0
2020-10-25 17:24:43 GMT 40.758362 -86.308228 22,000 313 410 -64
2020-10-25 17:24:37 GMT 40.755249 -86.303772 22,000 313 410 64
2020-10-25 17:24:32 GMT 40.748062 -86.293457 22,000 313 410 64
2020-10-25 17:24:27 GMT 40.742432 -86.285400 22,000 313 409 0
2020-10-25 17:24:24 GMT 40.739090 -86.280579 22,000 313 410 0
2020-10-25 17:24:21 GMT 40.735397 -86.275200 22,000 313 410 0
2020-10-25 17:24:16 GMT 40.729019 -86.266022 22,000 313 409 -128
2020-10-25 17:24:12 GMT 40.724411 -86.259346 22,025 313 409 -128
2020-10-25 17:24:08 GMT 40.715378 -86.246338 22,025 313 408 0
2020-10-25 17:23:59 GMT 40.706764 -86.234062 22,000 313 409 128
2020-10-25 17:23:55 GMT 40.701923 -86.227135 22,000 313 408 64
2020-10-25 17:23:50 GMT 40.695648 -86.218201 22,000 313 408 0
2020-10-25 17:23:45 GMT 40.688843 -86.208466 22,000 313 408 0
2020-10-25 17:23:40 GMT 40.681320 -86.197693 22,000 313 408 0
2020-10-25 17:23:35 GMT 40.675575 -86.189430 22,000 313 408 0
2020-10-25 17:23:31 GMT 40.671246 -86.183250 22,000 313 408 0
2020-10-25 17:23:26 GMT 40.665253 -86.174622 22,000 313 408 0
2020-10-25 17:23:18 GMT 40.655548 -86.160706 22,000 313 408 0
2020-10-25 17:23:14 GMT 40.649139 -86.151611 22,000 313 409 0
2020-10-25 17:23:09 GMT 40.642502 -86.142090 22,000 313 408 0
2020-10-25 17:23:03 GMT 40.635727 -86.132378 22,000 313 409 0
2020-10-25 17:23:00 GMT 40.631790 -86.126648 22,000 313 409 0
2020-10-25 17:22:55 GMT 40.625656 -86.117859 22,000 313 409 0
2020-10-25 17:22:52 GMT 40.621811 -86.112366 22,000 313 409 -64
2020-10-25 17:22:48 GMT 40.615990 -86.104164 22,000 313 409 0
2020-10-25 17:22:44 GMT 40.612171 -86.098663 22,000 313 410 0
2020-10-25 17:22:40 GMT 40.604725 -86.087990 22,000 313 410 64
2020-10-25 17:22:36 GMT 40.601883 -86.084000 22,000 313 410 -64
2020-10-25 17:22:33 GMT 40.597740 -86.078133 22,000 313 410 -64
2020-10-25 17:22:29 GMT 40.592239 -86.070251 22,000 313 410 -128
2020-10-25 17:22:26 GMT 40.588348 -86.064758 22,000 313 411 -128
2020-10-25 17:22:22 GMT 40.581940 -86.055542 22,025 313 411 -64
2020-10-25 17:22:18 GMT 40.578701 -86.050980 22,000 313 410 0
2020-10-25 17:22:13 GMT 40.570972 -86.039925 22,000 313 411 64
2020-10-25 17:22:09 GMT 40.565689 -86.032471 22,000 313 411 64
2020-10-25 17:22:06 GMT 40.562027 -86.027283 22,000 313 411 64
2020-10-25 17:22:01 GMT 40.554913 -86.017204 22,000 313 413 -64
2020-10-25 17:21:58 GMT 40.551792 -86.012840 22,000 313 412 -64
2020-10-25 17:21:55 GMT 40.548676 -86.008408 22,000 313 412 -64
2020-10-25 17:21:52 GMT 40.543739 -86.001411 22,000 313 412 0
2020-10-25 17:21:47 GMT 40.538727 -85.994263 22,000 313 412 0
2020-10-25 17:21:44 GMT 40.534561 -85.988342 22,000 313 413 0
2020-10-25 17:21:41 GMT 40.525497 -85.975464 22,000 313 413 0
2020-10-25 17:21:38 GMT 40.525497 -85.975464 22,000 313 413 0
2020-10-25 17:21:35 GMT 40.521954 -85.970512 22,000 313 413 0
2020-10-25 17:21:30 GMT 40.516617 -85.962952 22,000 313 413 -64
2020-10-25 17:21:27 GMT 40.511806 -85.956154 22,000 313 413 -64
2020-10-25 17:21:21 GMT 40.502682 -85.943237 22,000 313 414 64
2020-10-25 17:21:17 GMT 40.498672 -85.937500 22,000 313 414 64
2020-10-25 17:21:10 GMT 40.490616 -85.926025 22,000 313 414 64
2020-10-25 17:21:07 GMT 40.485397 -85.918640 22,000 313 415 0
2020-10-25 17:20:59 GMT 40.475189 -85.904236 22,000 313 415 0
2020-10-25 17:20:56 GMT 40.471397 -85.898918 22,000 313 415 -64
2020-10-25 17:20:49 GMT 40.462875 -85.886902 22,000 313 416 0
2020-10-25 17:20:46 GMT 40.458271 -85.880440 22,000 313 415 64
2020-10-25 17:20:41 GMT 40.450451 -85.869392 22,000 313 416 64
2020-10-25 17:20:38 GMT 40.447842 -85.865646 22,000 313 416 0
2020-10-25 17:20:35 GMT 40.444290 -85.860657 22,000 313 416 0
2020-10-25 17:20:29 GMT 40.436462 -85.849548 22,000 313 416 0
2020-10-25 17:20:25 GMT 40.430805 -85.841553 22,000 314 417 -64
2020-10-25 17:20:20 GMT 40.423450 -85.831253 22,000 314 417 -128
2020-10-25 17:20:17 GMT 40.420166 -85.826599 22,000 314 417 -128
2020-10-25 17:20:14 GMT 40.417118 -85.822388 22,000 313 417 -128
2020-10-25 17:20:11 GMT 40.413300 -85.817017 22,000 313 417 -128
2020-10-25 17:20:08 GMT 40.408585 -85.810303 22,000 313 417 0
2020-10-25 17:20:05 GMT 40.403709 -85.803474 22,000 313 417 64
2020-10-25 17:20:00 GMT 40.398216 -85.795670 22,000 313 418 64
2020-10-25 17:19:57 GMT 40.393005 -85.788239 22,000 314 418 -64
2020-10-25 17:19:54 GMT 40.389450 -85.783203 22,000 313 418 0
2020-10-25 17:19:49 GMT 40.378830 -85.768372 22,000 314 418 -64
2020-10-25 17:19:41 GMT 40.371822 -85.758530 22,000 313 419 -64
2020-10-25 17:19:36 GMT 40.365372 -85.749451 22,000 313 419 64
2020-10-25 17:19:33 GMT 40.361938 -85.744629 22,000 313 419 64
2020-10-25 17:19:26 GMT 40.351913 -85.730408 22,000 313 420 0
2020-10-25 17:19:22 GMT 40.348595 -85.725754 22,000 313 420 0
2020-10-25 17:19:19 GMT 40.344223 -85.719604 22,000 314 420 -64
2020-10-25 17:19:15 GMT 40.330204 -85.700104 22,000 314 420 0
2020-10-25 17:19:10 GMT 40.330204 -85.700104 22,000 314 420 0
2020-10-25 17:19:05 GMT 40.324997 -85.692871 22,000 314 421 64
2020-10-25 17:19:01 GMT 40.320335 -85.686371 22,000 313 422 64
2020-10-25 17:18:57 GMT 40.313400 -85.676628 22,000 313 422 64
2020-10-25 17:18:53 GMT 40.309956 -85.671761 22,000 313 423 64
2020-10-25 17:18:49 GMT 40.302505 -85.661278 22,000 313 423 -64
2020-10-25 17:18:46 GMT 40.299957 -85.657715 22,000 313 423 -64
2020-10-25 17:18:43 GMT 40.295929 -85.652100 22,000 314 423 -128
2020-10-25 17:18:40 GMT 40.290573 -85.644653 22,000 314 423 -128
2020-10-25 17:18:36 GMT 40.286400 -85.638863 22,000 314 423 0
2020-10-25 17:18:33 GMT 40.282394 -85.633247 22,000 314 424 64
2020-10-25 17:18:24 GMT 40.260841 -85.603287 22,000 314 425 -64
2020-10-25 17:18:18 GMT 40.260841 -85.603287 22,000 314 425 -128
2020-10-25 17:18:14 GMT 40.257072 -85.598038 22,000 314 425 -128
2020-10-25 17:18:11 GMT 40.253174 -85.592590 22,000 313 425 -64
2020-10-25 17:18:04 GMT 40.243572 -85.579315 22,000 314 426 0
2020-10-25 17:18:00 GMT 40.237892 -85.571449 22,000 314 427 64
2020-10-25 17:17:56 GMT 40.233124 -85.564880 22,000 314 427 0
2020-10-25 17:17:53 GMT 40.226898 -85.556274 22,000 314 426 0
2020-10-25 17:17:49 GMT 40.222717 -85.550415 22,000 313 425 -64
2020-10-25 17:17:46 GMT 40.215687 -85.540672 22,000 313 425 -128
2020-10-25 17:17:43 GMT 40.209820 -85.532372 22,000 313 425 -64
2020-10-25 17:17:40 GMT 40.209820 -85.532372 22,000 313 425 0
2020-10-25 17:17:34 GMT 40.201767 -85.521133 22,000 314 424 -64
2020-10-25 17:17:31 GMT 40.197205 -85.514832 22,000 314 424 -64
2020-10-25 17:17:26 GMT 40.191246 -85.506653 22,000 314 423 -64
2020-10-25 17:17:20 GMT 40.183868 -85.496399 22,000 314 422 -64
2020-10-25 17:17:13 GMT 40.173836 -85.482559 22,025 314 420 0
2020-10-25 17:17:10 GMT 40.169415 -85.476440 22,000 314 420 64
2020-10-25 17:17:06 GMT 40.164093 -85.469055 22,000 314 419 0
2020-10-25 17:17:02 GMT 40.159683 -85.462959 22,000 314 417 0
2020-10-25 17:16:59 GMT 40.156006 -85.457840 22,000 314 410 0
2020-10-25 17:16:55 GMT 40.149536 -85.448914 22,000 314 412 0
2020-10-25 17:16:51 GMT 40.144043 -85.441406 22,000 314 409 0
2020-10-25 17:16:48 GMT 40.138321 -85.433533 22,025 314 404 0
2020-10-25 17:16:42 GMT 40.132874 -85.426086 22,025 314 403 0
2020-10-25 17:16:38 GMT 40.127842 -85.419327 22,025 319 399 128
2020-10-25 17:16:32 GMT 40.120583 -85.410400 22,000 319 399 128
2020-10-25 17:16:28 GMT 40.113556 -85.402954 22,000 324 399 0
2020-10-25 17:16:21 GMT 40.102936 -85.393791 22,000 331 400 -64
2020-10-25 17:16:17 GMT 40.097946 -85.390076 22,000 331 399 -64
2020-10-25 17:16:13 GMT 40.090851 -85.384888 22,000 332 398 0
2020-10-25 17:16:09 GMT 40.085678 -85.381226 22,000 332 395 64
2020-10-25 17:16:05 GMT 40.077621 -85.375427 22,000 331 397 0
2020-10-25 17:15:59 GMT 40.063797 -85.365417 22,000 331 397 -64
2020-10-25 17:15:52 GMT 40.057343 -85.360718 22,000 331 396 -64
2020-10-25 17:15:48 GMT 40.047260 -85.353409 22,000 331 395 0
2020-10-25 17:15:42 GMT 40.040085 -85.348206 22,000 332 395 0
2020-10-25 17:15:35 GMT 40.030922 -85.341675 22,000 332 394 0
2020-10-25 17:15:31 GMT 40.023743 -85.336487 22,000 332 394 64
2020-10-25 17:15:27 GMT 40.018295 -85.332581 22,000 331 393 0
2020-10-25 17:15:24 GMT 40.013371 -85.329002 22,000 331 393 0
2020-10-25 17:15:19 GMT 40.003502 -85.321884 22,000 331 392 0
2020-10-25 17:15:15 GMT 39.996643 -85.316956 22,000 332 392 0
2020-10-25 17:15:07 GMT 39.985565 -85.308960 22,000 332 391 64
2020-10-25 17:15:04 GMT 39.980598 -85.305466 22,000 332 391 0
2020-10-25 17:14:57 GMT 39.967937 -85.296356 22,000 332 389 0
2020-10-25 17:14:54 GMT 39.963684 -85.293274 22,000 332 389 0
2020-10-25 17:14:46 GMT 39.951225 -85.284309 22,000 331 389 -64
2020-10-25 17:14:43 GMT 39.947296 -85.281433 22,000 331 389 -64
2020-10-25 17:14:36 GMT 39.935162 -85.272636 22,000 331 389 0
2020-10-25 17:14:32 GMT 39.930462 -85.269203 22,000 332 389 0
2020-10-25 17:14:25 GMT 39.919235 -85.261192 22,000 332 390 -64
2020-10-25 17:14:22 GMT 39.914520 -85.257790 22,000 331 390 0
2020-10-25 17:14:17 GMT 39.905510 -85.251343 22,000 332 389 0
2020-10-25 17:14:14 GMT 39.902672 -85.249329 22,000 331 390 0
2020-10-25 17:14:10 GMT 39.891312 -85.241150 22,000 331 390 0
2020-10-25 17:14:04 GMT 39.885773 -85.237190 22,000 332 389 -64
2020-10-25 17:14:01 GMT 39.881210 -85.233887 22,000 332 389 -64
2020-10-25 17:13:56 GMT 39.872364 -85.227478 22,000 332 390 0
2020-10-25 17:13:51 GMT 39.864258 -85.221725 22,000 332 391 0
2020-10-25 17:13:48 GMT 39.859177 -85.218140 22,000 332 391 64
2020-10-25 17:13:45 GMT 39.855377 -85.215454 22,000 332 392 0
2020-10-25 17:13:40 GMT 39.847878 -85.210144 22,000 332 391 0
2020-10-25 17:13:37 GMT 39.843613 -85.207092 22,000 332 391 0
2020-10-25 17:13:34 GMT 39.833958 -85.200073 22,000 331 391 64
2020-10-25 17:13:31 GMT 39.833958 -85.200073 22,000 331 391 0
2020-10-25 17:13:28 GMT 39.829056 -85.196526 22,000 331 391 64
2020-10-25 17:13:25 GMT 39.822926 -85.191956 22,000 332 392 0
2020-10-25 17:13:17 GMT 39.810867 -85.183289 22,000 332 392 0
2020-10-25 17:13:14 GMT 39.805298 -85.179268 22,000 332 393 0
2020-10-25 17:13:09 GMT 39.798763 -85.174622 22,000 332 393 0
2020-10-25 17:13:06 GMT 39.792992 -85.170532 22,000 332 394 64
2020-10-25 17:13:02 GMT 39.781120 -85.162109 21,975 332 396 128
2020-10-25 17:12:59 GMT 39.781120 -85.162109 21,975 332 396 128
2020-10-25 17:12:55 GMT 39.769409 -85.153717 21,975 332 398 -128
2020-10-25 17:12:51 GMT 39.769409 -85.153717 21,975 332 398 -128
2020-10-25 17:12:46 GMT 39.761948 -85.148460 21,975 332 398 192
2020-10-25 17:12:42 GMT 39.755985 -85.144226 21,875 332 399 1024
2020-10-25 17:12:35 GMT 39.742718 -85.134766 21,750 332 398 1536
2020-10-25 17:12:31 GMT 39.736244 -85.130127 21,650 332 398 1536
2020-10-25 17:12:26 GMT 39.728348 -85.124519 21,550 332 396 1472
2020-10-25 17:12:20 GMT 39.720337 -85.118729 21,425 332 395 1472
2020-10-25 17:12:14 GMT 39.708965 -85.110657 21,275 332 392 1088
2020-10-25 17:12:08 GMT 39.699280 -85.103683 21,150 332 389 1152
2020-10-25 17:12:05 GMT 39.694885 -85.100517 21,100 332 388 1088
2020-10-25 17:12:00 GMT 39.688293 -85.095802 21,025 332 385 1088
2020-10-25 17:11:55 GMT 39.680145 -85.090004 20,900 332 383 1152
2020-10-25 17:11:52 GMT 39.675797 -85.086960 20,900 332 382 1152
2020-10-25 17:11:49 GMT 39.671768 -85.084099 20,850 332 379 1088
2020-10-25 17:11:46 GMT 39.666370 -85.080261 20,775 332 378 1152
2020-10-25 17:11:43 GMT 39.660271 -85.075867 20,700 331 375 1088
2020-10-25 17:11:40 GMT 39.656315 -85.073059 20,675 332 373 1088
2020-10-25 17:11:36 GMT 39.651306 -85.069466 20,600 332 369 1088
2020-10-25 17:11:32 GMT 39.645424 -85.065247 20,550 332 369 1088
2020-10-25 17:11:29 GMT 39.641418 -85.062363 20,500 331 367 1088
2020-10-25 17:11:25 GMT 39.634552 -85.057465 20,375 332 363 1152
2020-10-25 17:11:22 GMT 39.630112 -85.054298 20,350 332 357 1216
2020-10-25 17:11:18 GMT 39.624378 -85.050171 20,275 332 360 1152
2020-10-25 17:11:08 GMT 39.603806 -85.035706 19,950 334 353 1664
2020-10-25 17:11:03 GMT 39.601757 -85.034363 19,900 335 353 1664
2020-10-25 17:10:59 GMT 39.592987 -85.029106 18,325 333 338 2496
2020-10-25 17:10:51 GMT 39.583786 -85.023727 19,525 335 350 2368
2020-10-25 17:10:46 GMT 39.577972 -85.020027 19,375 334 348 2368
2020-10-25 17:10:43 GMT 39.573669 -85.017220 19,100 333 347 2368
2020-10-25 17:10:40 GMT 39.569218 -85.014282 18,950 333 347 2368
2020-10-25 17:10:36 GMT 39.562729 -85.010056 18,950 333 347 2368
2020-10-25 17:10:30 GMT 39.553299 -85.003792 18,725 333 347 2304
2020-10-25 17:10:23 GMT 39.544029 -84.997681 18,475 333 346 2368
2020-10-25 17:10:19 GMT 39.540161 -84.995071 18,300 333 345 2304
2020-10-25 17:10:16 GMT 39.534348 -84.991211 18,225 333 344 2368
2020-10-25 17:10:10 GMT 39.525551 -84.985352 17,975 333 344 2368
2020-10-25 17:10:05 GMT 39.519470 -84.981277 17,825 333 343 2432
2020-10-25 17:09:59 GMT 39.510681 -84.975426 17,575 333 343 2368
2020-10-25 17:09:55 GMT 39.504883 -84.971619 17,425 333 342 2304
2020-10-25 17:09:50 GMT 39.496857 -84.966354 17,200 333 341 2368
2020-10-25 17:09:47 GMT 39.492496 -84.963440 16,900 333 341 2368
2020-10-25 17:09:41 GMT 39.485142 -84.958618 16,875 334 340 2368
2020-10-25 17:09:38 GMT 39.481510 -84.956238 16,775 334 339 2432
2020-10-25 17:09:34 GMT 39.475204 -84.952080 16,600 333 338 2368
2020-10-25 17:09:30 GMT 39.468616 -84.947754 16,425 333 338 2496
2020-10-25 17:09:27 GMT 39.465824 -84.945923 13,875 333 338 2496
2020-10-25 17:09:24 GMT 39.460236 -84.942261 16,200 334 337 2304
2020-10-25 17:09:18 GMT 39.451904 -84.936768 15,975 334 336 2432
2020-10-25 17:09:15 GMT 39.449799 -84.935425 15,800 334 335 2496
2020-10-25 17:09:11 GMT 39.443710 -84.931480 15,725 334 334 2496
2020-10-25 17:09:07 GMT 39.437622 -84.927483 15,600 334 334 2496
2020-10-25 17:09:04 GMT 39.434727 -84.925598 15,425 334 334 2560
2020-10-25 17:08:59 GMT 39.424995 -84.919434 15,175 335 333 2560
2020-10-25 17:08:55 GMT 39.420853 -84.916809 15,050 335 333 2560
2020-10-25 17:08:46 GMT 39.407547 -84.908852 14,675 335 330 2368
2020-10-25 17:08:41 GMT 39.402603 -84.905746 14,550 334 330 2304
2020-10-25 17:08:38 GMT 39.397385 -84.902405 14,425 333 326 1984
2020-10-25 17:08:35 GMT 39.388824 -84.896614 14,075 334 321 4032
2020-10-25 17:08:32 GMT 39.388824 -84.896614 14,225 333 324 1920
2020-10-25 17:08:29 GMT 39.384567 -84.893745 14,125 333 322 1984
2020-10-25 17:08:25 GMT 39.379421 -84.890259 13,975 333 321 2496
2020-10-25 17:08:20 GMT 39.374496 -84.887054 13,825 334 320 2880
2020-10-25 17:08:15 GMT 39.367859 -84.882759 13,350 334 321 4224
2020-10-25 17:08:11 GMT 39.361080 -84.878479 13,225 334 322 4480
2020-10-25 17:08:03 GMT 39.351562 -84.872307 12,775 334 327 4160
2020-10-25 17:08:00 GMT 39.347069 -84.869385 12,525 334 330 3584
2020-10-25 17:07:53 GMT 39.338150 -84.863655 11,800 334 332 3456
2020-10-25 17:07:49 GMT 39.332497 -84.860046 11,925 334 333 3392
2020-10-25 17:07:42 GMT 39.322083 -84.853386 11,600 334 333 2048
2020-10-25 17:07:39 GMT 39.317276 -84.850281 11,500 334 330 1728
2020-10-25 17:07:32 GMT 39.308521 -84.844666 11,325 334 326 1664
2020-10-25 17:07:29 GMT 39.304195 -84.841858 11,250 333 319 1536
2020-10-25 17:07:23 GMT 39.295162 -84.835938 11,050 333 318 1408
2020-10-25 17:07:18 GMT 39.289032 -84.831825 10,975 333 313 1280
2020-10-25 17:07:12 GMT 39.282074 -84.827293 10,850 333 307 1408
2020-10-25 17:07:04 GMT 39.271774 -84.820541 10,625 334 299 2176
2020-10-25 17:07:00 GMT 39.266602 -84.817200 10,450 334 297 2688
2020-10-25 17:06:57 GMT 39.263973 -84.815552 10,350 334 296 3648
2020-10-25 17:06:53 GMT 39.258572 -84.812134 10,075 334 296 3968
2020-10-25 17:06:46 GMT 39.250534 -84.807053 9,650 334 301 3200
2020-10-25 17:06:43 GMT 39.245041 -84.803528 9,425 334 301 2816
2020-10-25 17:06:38 GMT 39.240650 -84.800720 9,275 334 300 2688
2020-10-25 17:06:34 GMT 39.235718 -84.797485 8,800 333 298 2688
2020-10-25 17:06:31 GMT 39.231758 -84.794861 8,950 333 297 2624
2020-10-25 17:06:27 GMT 39.225266 -84.790627 6,850 334 296 2432
2020-10-25 17:06:21 GMT 39.217758 -84.785736 8,525 334 290 2240
2020-10-25 17:06:16 GMT 39.210732 -84.782700 6,600 332 277 2080
2020-10-25 17:06:13 GMT 39.207310 -84.780441 6,600 332 277 3648
2020-10-25 17:06:10 GMT 39.203892 -84.778168 6,600 332 277 3648
2020-10-25 17:06:07 GMT 39.200470 -84.775909 6,600 332 277 3648
2020-10-25 17:06:04 GMT 39.197048 -84.773651 6,600 332 277 3648
2020-10-25 17:06:01 GMT 39.194458 -84.771103 6,600 332 277 3648
2020-10-25 17:05:58 GMT 39.186790 -84.766869 6,600 332 277 3648
2020-10-25 17:05:55 GMT 39.186790 -84.766869 6,600 332 277 3648
2020-10-25 17:05:52 GMT 39.183369 -84.764610 6,600 332 277 3648
2020-10-25 17:05:49 GMT 39.179951 -84.762352 6,600 332 277 3648
2020-10-25 17:05:46 GMT 39.176430 -84.759956 6,600 333 275 3648
2020-10-25 17:05:43 GMT 39.173038 -84.757729 6,600 333 275 3648
2020-10-25 17:05:40 GMT 39.169559 -84.755379 6,400 333 272 3648
2020-10-25 17:05:37 GMT 39.162701 -84.750877 6,000 333 269 3648
2020-10-25 17:05:34 GMT 39.162701 -84.750877 6,000 333 267 3648
2020-10-25 17:05:31 GMT 39.159309 -84.748627 6,000 333 267 3648
2020-10-25 17:05:28 GMT 39.155849 -84.746353 6,000 333 267 3648
2020-10-25 17:05:25 GMT 39.152561 -84.744247 5,800 333 265 3648
2020-10-25 17:05:22 GMT 39.149231 -84.742126 5,625 333 264 3648
2020-10-25 17:05:19 GMT 39.145931 -84.740044 5,550 333 264 3648
2020-10-25 17:05:16 GMT 39.142632 -84.737984 5,425 333 264 3648
2020-10-25 17:05:13 GMT 39.135738 -84.733620 5,125 332 259 2048
2020-10-25 17:05:10 GMT 39.135738 -84.733620 5,000 332 255 2048
2020-10-25 17:05:07 GMT 39.132320 -84.731369 4,900 332 254 2048
2020-10-25 17:05:04 GMT 39.129059 -84.729210 4,800 332 253 2048
2020-10-25 17:05:01 GMT 39.125702 -84.726982 4,600 332 248 2048
2020-10-25 17:04:58 GMT 39.122532 -84.724823 4,525 332 246 2048
2020-10-25 17:04:55 GMT 39.119438 -84.722763 4,475 332 246 2048
2020-10-25 17:04:52 GMT 39.116348 -84.720757 4,325 333 244 2048
2020-10-25 17:04:49 GMT 39.113331 -84.718781 4,250 332 245 2048
2020-10-25 17:04:46 GMT 39.110271 -84.716850 4,100 331 242 2048
2020-10-25 17:04:43 GMT 39.107311 -84.714897 3,950 328 244 2048
2020-10-25 17:04:40 GMT 39.104389 -84.712708 3,800 325 245 2048
2020-10-25 17:04:37 GMT 39.101509 -84.710327 3,725 323 245 2048
2020-10-25 17:04:34 GMT 39.098751 -84.707764 3,650 322 238 2048
2020-10-25 17:04:31 GMT 39.096050 -84.705139 3,575 321 244 2048
2020-10-25 17:04:28 GMT 39.091049 -84.699867 3,350 318 229 2048
2020-10-25 17:04:25 GMT 39.091049 -84.699867 3,275 318 228 2048
2020-10-25 17:04:22 GMT 39.088692 -84.697212 3,175 317 229 2048
2020-10-25 17:04:19 GMT 39.086300 -84.694473 3,025 318 231 2048
2020-10-25 17:04:16 GMT 39.083870 -84.691689 2,925 317 220 2048
2020-10-25 17:04:13 GMT 39.079391 -84.686417 2,700 317 216 64
2020-10-25 17:04:10 GMT 39.079391 -84.686417 2,625 317 212 64
2020-10-25 17:04:07 GMT 39.077129 -84.683800 2,525 316 200 64
2020-10-25 17:04:04 GMT 39.075111 -84.681328 2,450 317 193 64
2020-10-25 17:04:01 GMT 39.073071 -84.678970 2,400 318 193 64
2020-10-25 17:03:58 GMT 39.071060 -84.676682 2,350 320 189 64
2020-10-25 17:03:55 GMT 39.069118 -84.674538 2,225 327 181 64
2020-10-25 17:03:52 GMT 39.066990 -84.672783 2,175 332 171 64
2020-10-25 17:03:49 GMT 39.062672 -84.670563 1,950 347 159 64
2020-10-25 17:03:46 GMT 39.062672 -84.670563 1,875 349 155 64
2020-10-25 17:03:43 GMT 39.060539 -84.669968 1,775 351 151 64
2020-10-25 17:03:40 GMT 39.058491 -84.669571 1,650 353 152 64
2020-10-25 17:03:37 GMT 39.056381 -84.669281 1,475 356 150 64
2020-10-25 17:03:34 GMT 39.052238 -84.668900 1,250 356 147 64
2020-10-25 17:03:31 GMT 39.052238 -84.668900 1,150 357 148 3008
2020-10-25 17:03:28 GMT 39.050190 -84.668739 975 358 146 64
2020-10-25 17:03:25 GMT 39.048130 -84.668671 850 359 145 64
2020-10-25 17:03:22 GMT 39.046089 -84.668663 800 0 143 64
2020-10-25 17:03:19 GMT 39.044128 -84.668671 700 0 136 -96
2020-10-25 17:03:16 GMT 39.040482 -84.668716 725 359 117 0
2020-10-25 17:03:13 GMT 39.040482 -84.668716 700 359 105 0
2020-10-25 17:03:10 GMT 39.038952 -84.668762 0 359 85
2020-10-25 17:03:07 GMT 39.037670 -84.668732 0 0 73
2020-10-25 17:03:04 GMT 39.036591 -84.668732 0 359 68
2020-10-25 17:03:01 GMT 39.035191 -84.668747 0 358 17
2020-10-25 17:02:58 GMT 39.035191 -84.668747 0 358 4
2020-10-25 17:02:55 GMT 39.034962 -84.668739 0 357 3
2020-10-25 17:02:52 GMT 39.034931 -84.668739 0 351 3
2020-10-25 17:02:49 GMT 39.034859 -84.668747 0 346 2
2020-10-25 17:02:46 GMT 39.034882 -84.668808 0 334 4
2020-10-25 17:02:43 GMT 39.034790 -84.668839 0 293 10
2020-10-25 17:02:40 GMT 39.034649 -84.668671 0 271 9
2020-10-25 17:02:37 GMT 39.034649 -84.668671 0 271 11
2020-10-25 17:02:34 GMT 39.034630 -84.668449 0 266 10
2020-10-25 17:02:31 GMT 39.034630 -84.668259 0 266 10
2020-10-25 17:02:28 GMT 39.034649 -84.668037 0 268 5
2020-10-25 17:02:25 GMT 39.034660 -84.667839 0 269 1
2020-10-25 17:02:22 GMT 39.034679 -84.667542 0 269 0
2020-10-25 17:02:19 GMT 39.034679 -84.667542 0 269 0
2020-10-25 17:02:16 GMT 39.034672 -84.667511 0 269 0
2020-10-25 17:02:13 GMT 39.034672 -84.667526 0 269 0
2020-10-25 17:02:08 GMT 39.034672 -84.667542 0 269 0
2020-10-25 17:02:05 GMT 39.034672 -84.667557 0 269 0
2020-10-25 17:02:02 GMT 39.034672 -84.667511 0 269 0
2020-10-25 17:01:59 GMT 39.034691 -84.667442 0 269 0
2020-10-25 17:01:56 GMT 39.034672 -84.667480 0 269 0
2020-10-25 17:01:53 GMT 39.034672 -84.667473 0 269 0
2020-10-25 17:01:50 GMT 39.034672 -84.667473 0 269 0
2020-10-25 17:01:47 GMT 39.034672 -84.667503 0 269 0
2020-10-25 17:01:44 GMT 39.034660 -84.667526 0 269 0
2020-10-25 17:01:41 GMT 39.034660 -84.667549 0 269 0
2020-10-25 17:01:38 GMT 39.034679 -84.667511 0 269 0
2020-10-25 17:01:32 GMT 39.034672 -84.667503 0 269 0
2020-10-25 17:01:29 GMT 39.034679 -84.667526 0 269 0
2020-10-25 17:01:26 GMT 39.034679 -84.667473 0 269 0
2020-10-25 17:01:23 GMT 39.034660 -84.667519 0 269 0
2020-10-25 17:01:20 GMT 39.034672 -84.667603 0 269 0
2020-10-25 17:01:17 GMT 39.034660 -84.667580 0 269 0
2020-10-25 17:01:14 GMT 39.034660 -84.667580 0 269 0
2020-10-25 17:01:11 GMT 39.034672 -84.667503 0 269 0
2020-10-25 17:01:08 GMT 39.034660 -84.667549 0 269 0
2020-10-25 17:01:05 GMT 39.034672 -84.667580 0 269 0
2020-10-25 17:01:02 GMT 39.034679 -84.667572 0 269 0
2020-10-25 17:00:59 GMT 39.034672 -84.667557 0 269 0
2020-10-25 17:00:56 GMT 39.034672 -84.667618 0 269 0
2020-10-25 17:00:52 GMT 39.034672 -84.667618 0 269 0
2020-10-25 17:00:49 GMT 39.034660 -84.667519 0 269 0
2020-10-25 17:00:46 GMT 39.034672 -84.667503 0 269 0
2020-10-25 17:00:43 GMT 39.034672 -84.667503 0 269 0
2020-10-25 17:00:40 GMT 39.034679 -84.667503 0 269 0
2020-10-25 17:00:37 GMT 39.034672 -84.667572 0 269 0
2020-10-25 17:00:34 GMT 39.034660 -84.667542 0 269 0
2020-10-25 17:00:31 GMT 39.034660 -84.667580 0 269 0
2020-10-25 17:00:28 GMT 39.034672 -84.667572 0 269 0
2020-10-25 17:00:25 GMT 39.034672 -84.667603 0 269 0
2020-10-25 17:00:22 GMT 39.034660 -84.667557 0 269 0
2020-10-25 17:00:19 GMT 39.034672 -84.667526 0 269 0
2020-10-25 17:00:16 GMT 39.034672 -84.667526 0 269 0
2020-10-25 17:00:13 GMT 39.034679 -84.667488 0 269 0
2020-10-25 17:00:10 GMT 39.034691 -84.667473 0 269 0
2020-10-25 17:00:07 GMT 39.034672 -84.667526 0 269 0
2020-10-25 17:00:04 GMT 39.034691 -84.667442 0 269 0
2020-10-25 17:00:00 GMT 39.034679 -84.667473 0 269 0
2020-10-25 16:59:57 GMT 39.034672 -84.667511 0 269 0
2020-10-25 16:59:54 GMT 39.034679 -84.667542 0 269 0
2020-10-25 16:59:51 GMT 39.034679 -84.667572 0 269 0
2020-10-25 16:59:48 GMT 39.034691 -84.667587 0 269 0
2020-10-25 16:59:45 GMT 39.034679 -84.667473 0 269 0
2020-10-25 16:59:42 GMT 39.034679 -84.667450 0 269 0
2020-10-25 16:59:39 GMT 39.034679 -84.667450 0 269 0
2020-10-25 16:59:36 GMT 39.034691 -84.667450 0 269 0
2020-10-25 16:59:33 GMT 39.034691 -84.667427 0 269 0
2020-10-25 16:59:30 GMT 39.034679 -84.667442 0 269 0
2020-10-25 16:59:27 GMT 39.034672 -84.667473 0 269 0
2020-10-25 16:59:24 GMT 39.034691 -84.667458 0 269 0
2020-10-25 16:59:21 GMT 39.034691 -84.667458 0 269 0
2020-10-25 16:59:18 GMT 39.034679 -84.667480 0 269 0
2020-10-25 16:59:15 GMT 39.034679 -84.667488 0 269 0
2020-10-25 16:59:12 GMT 39.034679 -84.667450 0 269 0
2020-10-25 16:59:09 GMT 39.034679 -84.667450 0 269 0
2020-10-25 16:59:06 GMT 39.034679 -84.667450 0 269 0
2020-10-25 16:59:03 GMT 39.034672 -84.667458 0 269 0
2020-10-25 16:59:00 GMT 39.034691 -84.667427 0 269 0
2020-10-25 16:58:57 GMT 39.034679 -84.667473 0 269 0
2020-10-25 16:58:54 GMT 39.034679 -84.667458 0 269 0
2020-10-25 16:58:51 GMT 39.034679 -84.667503 0 269 0
2020-10-25 16:58:48 GMT 39.034672 -84.667519 0 269 0
2020-10-25 16:58:45 GMT 39.034672 -84.667511 0 269 0
2020-10-25 16:58:42 GMT 39.034660 -84.667557 0 269 0
2020-10-25 16:58:39 GMT 39.034660 -84.667610 0 269 0
2020-10-25 16:58:36 GMT 39.034672 -84.667503 0 269 0
2020-10-25 16:58:33 GMT 39.034660 -84.667549 0 269 0
2020-10-25 16:58:30 GMT 39.034660 -84.667557 0 269 0
2020-10-25 16:58:27 GMT 39.034660 -84.667549 0 269 0
2020-10-25 16:58:24 GMT 39.034660 -84.667542 0 269 0
2020-10-25 16:58:19 GMT 39.034660 -84.667549 0 269 0
2020-10-25 16:58:16 GMT 39.034660 -84.667557 0 269 0
2020-10-25 16:58:13 GMT 39.034660 -84.667549 0 269 0
2020-10-25 16:58:10 GMT 39.034660 -84.667542 0 269 0
2020-10-25 16:58:07 GMT 39.034691 -84.667587 0 267 3
2020-10-25 16:58:04 GMT 39.034660 -84.667542 0 223 4
2020-10-25 16:58:01 GMT 39.034660 -84.667343 0 180 8
2020-10-25 16:57:58 GMT 39.034660 -84.667343 0 178 8
2020-10-25 16:57:55 GMT 39.034760 -84.667328 0 178 9
2020-10-25 16:57:52 GMT 39.034882 -84.667351 0 181 9
2020-10-25 16:57:49 GMT 39.035000 -84.667351 0 181 9
2020-10-25 16:57:46 GMT 39.035110 -84.667351 0 182 9
2020-10-25 16:57:43 GMT 39.035221 -84.667343 0 181 9
2020-10-25 16:57:40 GMT 39.035469 -84.667328 0 180 10
2020-10-25 16:57:34 GMT 39.035599 -84.667320 0 178 11
2020-10-25 16:57:31 GMT 39.035740 -84.667313 0 177 12
2020-10-25 16:57:28 GMT 39.035912 -84.667343 0 177 12
2020-10-25 16:57:25 GMT 39.036072 -84.667343 0 179 12
2020-10-25 16:57:22 GMT 39.036221 -84.667351 0 180 11
2020-10-25 16:57:19 GMT 39.036369 -84.667351 0 181 15
2020-10-25 16:57:16 GMT 39.036541 -84.667351 0 182 18
2020-10-25 16:57:13 GMT 39.036770 -84.667343 0 182 18
2020-10-25 16:57:10 GMT 39.037029 -84.667313 0 182 18
2020-10-25 16:57:07 GMT 39.037239 -84.667313 0 180 18
2020-10-25 16:57:04 GMT 39.037510 -84.667297 0 178 21
2020-10-25 16:57:01 GMT 39.037800 -84.667320 0 180 21
2020-10-25 16:56:58 GMT 39.038090 -84.667320 0 179 22
2020-10-25 16:56:55 GMT 39.038361 -84.667343 0 182 22
2020-10-25 16:56:52 GMT 39.038658 -84.667320 0 181 23
2020-10-25 16:56:49 GMT 39.038971 -84.667297 0 179 23
2020-10-25 16:56:46 GMT 39.039280 -84.667313 0 179 23
2020-10-25 16:56:43 GMT 39.039631 -84.667320 0 180 22
2020-10-25 16:56:40 GMT 39.039940 -84.667313 0 180 22
2020-10-25 16:56:37 GMT 39.040260 -84.667320 0 182 21
2020-10-25 16:56:34 GMT 39.040539 -84.667313 0 181 21
2020-10-25 16:56:31 GMT 39.040829 -84.667297 0 181 21
2020-10-25 16:56:28 GMT 39.041130 -84.667282 0 180 20
2020-10-25 16:56:25 GMT 39.041409 -84.667267 0 179 20
2020-10-25 16:56:22 GMT 39.041691 -84.667259 0 178 21
2020-10-25 16:56:19 GMT 39.041981 -84.667290 0 180 20
2020-10-25 16:56:16 GMT 39.042252 -84.667290 0 179 20
2020-10-25 16:56:13 GMT 39.042542 -84.667290 0 180 20
2020-10-25 16:56:10 GMT 39.042820 -84.667290 0 180 21
2020-10-25 16:56:07 GMT 39.043098 -84.667290 0 180 21
2020-10-25 16:56:04 GMT 39.043381 -84.667282 0 179 22
2020-10-25 16:56:01 GMT 39.043690 -84.667290 0 180 22
2020-10-25 16:55:58 GMT 39.043991 -84.667290 0 180 24
2020-10-25 16:55:55 GMT 39.044338 -84.667282 0 179 23
2020-10-25 16:55:52 GMT 39.044659 -84.667282 0 178 22
2020-10-25 16:55:49 GMT 39.044960 -84.667290 0 180 22
2020-10-25 16:55:46 GMT 39.045269 -84.667290 0 181 21
2020-10-25 16:55:43 GMT 39.045872 -84.667282 0 180 19
2020-10-25 16:55:40 GMT 39.045872 -84.667282 0 180 19
2020-10-25 16:55:37 GMT 39.046139 -84.667282 0 180 19
2020-10-25 16:55:33 GMT 39.046768 -84.667267 0 180 19
2020-10-25 16:55:30 GMT 39.047039 -84.667282 0 180 19
2020-10-25 16:55:27 GMT 39.047039 -84.667282 0 181 19
2020-10-25 16:55:24 GMT 39.047298 -84.667259 0 181 19
2020-10-25 16:55:21 GMT 39.047562 -84.667259 0 180 19
2020-10-25 16:55:18 GMT 39.047840 -84.667236 0 179 19
2020-10-25 16:55:15 GMT 39.048100 -84.667252 0 178 19
2020-10-25 16:55:12 GMT 39.048359 -84.667259 0 179 19
2020-10-25 16:55:09 GMT 39.048630 -84.667267 0 180 18
2020-10-25 16:55:06 GMT 39.048889 -84.667259 0 179 17
2020-10-25 16:55:03 GMT 39.049141 -84.667267 0 180 17
2020-10-25 16:55:00 GMT 39.049381 -84.667267 0 180 17
2020-10-25 16:54:57 GMT 39.049622 -84.667259 0 180 16
2020-10-25 16:54:54 GMT 39.049850 -84.667252 0 179 16
2020-10-25 16:54:51 GMT 39.050079 -84.667259 0 179 16
2020-10-25 16:54:48 GMT 39.050301 -84.667252 0 177 15
2020-10-25 16:54:45 GMT 39.050510 -84.667267 0 179 15
2020-10-25 16:54:42 GMT 39.050751 -84.667259 0 179 14
2020-10-25 16:54:39 GMT 39.050930 -84.667259 0 177 14
2020-10-25 16:54:36 GMT 39.051121 -84.667297 0 192 13
2020-10-25 16:54:33 GMT 39.051300 -84.667252 0 195 13
2020-10-25 16:54:30 GMT 39.051479 -84.667130 0 228 16
2020-10-25 16:54:27 GMT 39.051590 -84.666702 0 270 16
2020-10-25 16:54:24 GMT 39.051590 -84.666702 0 270 17
2020-10-25 16:54:21 GMT 39.051590 -84.666428 0 270 17
2020-10-25 16:54:18 GMT 39.051590 -84.666122 0 270 17
2020-10-25 16:54:15 GMT 39.051590 -84.665840 0 270 17
2020-10-25 16:54:12 GMT 39.051601 -84.665543 0 271 17
2020-10-25 16:54:09 GMT 39.051579 -84.665237 0 271 17
2020-10-25 16:54:06 GMT 39.051571 -84.664932 0 269 16
2020-10-25 16:54:03 GMT 39.051579 -84.664642 0 270 15
2020-10-25 16:54:00 GMT 39.051590 -84.664352 0 270 17
2020-10-25 16:53:57 GMT 39.051579 -84.664078 0 270 16
2020-10-25 16:53:54 GMT 39.051571 -84.663498 0 272 16
2020-10-25 16:53:51 GMT 39.051571 -84.663498 0 270 16
2020-10-25 16:53:48 GMT 39.051571 -84.663223 0 269 15
2020-10-25 16:53:45 GMT 39.051571 -84.662941 0 269 15
2020-10-25 16:53:42 GMT 39.051571 -84.662689 0 268 16
2020-10-25 16:53:39 GMT 39.051579 -84.662399 0 271 17
2020-10-25 16:53:36 GMT 39.051579 -84.662117 0 270 18
2020-10-25 16:53:33 GMT 39.051571 -84.661789 0 269 18
2020-10-25 16:53:30 GMT 39.051579 -84.661461 0 271 19
2020-10-25 16:53:27 GMT 39.051579 -84.661133 0 271 18
2020-10-25 16:53:24 GMT 39.051559 -84.660797 0 269 18
2020-10-25 16:53:21 GMT 39.051571 -84.660461 0 270 18
2020-10-25 16:53:18 GMT 39.051579 -84.660141 0 271 18
2020-10-25 16:53:15 GMT 39.051571 -84.659828 0 270 17
2020-10-25 16:53:12 GMT 39.051552 -84.659523 0 272 17
2020-10-25 16:53:09 GMT 39.051521 -84.659264 0 251 19
2020-10-25 16:53:06 GMT 39.051590 -84.658943 0 239 15
2020-10-25 16:53:03 GMT 39.051682 -84.658699 0 225 14
2020-10-25 16:53:00 GMT 39.051788 -84.658524 0 214 14
2020-10-25 16:52:57 GMT 39.051991 -84.658371 0 210 14
2020-10-25 16:52:54 GMT 39.052151 -84.658203 0 186 13
2020-10-25 16:52:51 GMT 39.052341 -84.658150 0 183 14
2020-10-25 16:52:48 GMT 39.052528 -84.658119 0 179 13
2020-10-25 16:52:45 GMT 39.052711 -84.658112 0 178 13
2020-10-25 16:52:42 GMT 39.052891 -84.658112 0 179 14
2020-10-25 16:52:39 GMT 39.053089 -84.658112 0 179 14
2020-10-25 16:52:36 GMT 39.053280 -84.658127 0 179 13
2020-10-25 16:52:33 GMT 39.053459 -84.658119 0 179 13
2020-10-25 16:52:29 GMT 39.053692 -84.658142 0 186 12
2020-10-25 16:52:26 GMT 39.053871 -84.658127 0 190 12
2020-10-25 16:52:23 GMT 39.054031 -84.658096 0 190 13
2020-10-25 16:52:20 GMT 39.054211 -84.658073 0 208 9
2020-10-25 16:52:17 GMT 39.054329 -84.657944 0 269 11
2020-10-25 16:52:14 GMT 39.054359 -84.657738 0 270 12
2020-10-25 16:52:11 GMT 39.054359 -84.657516 0 268 12
2020-10-25 16:52:08 GMT 39.054352 -84.657333 0 270 13
2020-10-25 16:52:05 GMT 39.054371 -84.657089 0 273 11
2020-10-25 16:52:02 GMT 39.054371 -84.656891 0 276 12
2020-10-25 16:51:59 GMT 39.054340 -84.656631 0 343 10
2020-10-25 16:51:56 GMT 39.054459 -84.656380 0 343 13
2020-10-25 16:51:46 GMT 39.054298 -84.655701 0 266 12
2020-10-25 16:51:43 GMT 39.054310 -84.655479 0 266 12
2020-10-25 16:51:40 GMT 39.054321 -84.655273 0 266 12
2020-10-25 16:51:37 GMT 39.054321 -84.655037 0 266 10
2020-10-25 16:51:34 GMT 39.054352 -84.654900 0 269 12
2020-10-25 16:51:31 GMT 39.054352 -84.654671 0 276 6
2020-10-25 16:51:28 GMT 39.054321 -84.654427 0 276 6
2020-10-25 16:51:25 GMT 39.054409 -84.654381 0 276 10
2020-10-25 16:51:22 GMT 39.054329 -84.653992 0 264 8
2020-10-25 16:51:19 GMT 39.054329 -84.653992 0 260 7
2020-10-25 16:51:16 GMT 39.054321 -84.653816 0 268 5
2020-10-25 16:51:13 GMT 39.054352 -84.653740 0 304 5
2020-10-25 16:51:10 GMT 39.054340 -84.653633 0 321 0
2020-10-25 16:51:06 GMT 39.054329 -84.653618 0 321 0
2020-10-25 16:50:59 GMT 39.054340 -84.653618 0 321 0
2020-10-25 16:50:54 GMT 39.054329 -84.653618 0 321 0
2020-10-25 16:50:51 GMT 39.054329 -84.653610 0 321 0
2020-10-25 16:50:48 GMT 39.054329 -84.653618 0 321 0
2020-10-25 16:50:45 GMT 39.054329 -84.653610 0 321 0
2020-10-25 16:50:42 GMT 39.054340 -84.653610 0 321 0
2020-10-25 16:50:39 GMT 39.054329 -84.653610 0 321 0
2020-10-25 16:50:36 GMT 39.054329 -84.653603 0 321 0
2020-10-25 16:50:31 GMT 39.054321 -84.653603 0 321 0
2020-10-25 16:50:28 GMT 39.054321 -84.653610 0 321 0
2020-10-25 16:50:23 GMT 39.054340 -84.653610 0 321 0
2020-10-25 16:50:19 GMT 39.054340 -84.653610 0 321 1
2020-10-25 16:50:16 GMT 39.054329 -84.653610 0 321 1
2020-10-25 16:50:13 GMT 39.054321 -84.653603 0 321 1
2020-10-25 16:50:10 GMT 39.054291 -84.653587 0 321 3

Making use of Plane Finder data

You are free to use the raw flight data, aircraft information and images provided in this report for your own purposes provided the data is correctly attributed to Plane Finder. We ask that you please credit Plane Finder and link to planefinder.net in close proximity to the content.

Optionally one of the following logos (no smaller then 150x24px) can be used and must link to planefinder.net

Embedding the Plane Finder map

You are welcome to embed the Plane Finder playback map on your website to offer visitors a more interactive experience. We suggest using the following HTML code:

<iframe src="//planefinder.net/data/report/UA4393-N653CA-7700-squawk-2020-10-25/map" width="800" height="600" seamless="seamless"></iframe>

Where our data comes from

Plane Finder has a global network of data feeds and antenna radars that receive data broadcast directly from aircraft. The primary technologies used are ADS-B and MLAT. We also show feeds from the FAA and a FLARM glider feed.

Click here to find out more about the Plane Finder network.

How we collect our data